Observation data for Amarillo 7 South Southeast on 07/18/2019      Previous  Date  Next       Current Mesonet Observations  Soil Data  Daily Summary Page  Observations in Plain Language
KAM1 180500Z 17014KT 27/15 A30 RMK A01 T02700146  RH  047%=      5-min Rain = 0
KAM1 180501Z 17013KT 27/15 A30 RMK A01 T02710147  RH  046%=      5-min Rain = 0
KAM1 180502Z 17011KT 27/15 A30 RMK A01 T02710146  RH  046%=      5-min Rain = 0
KAM1 180503Z 17011KT 27/15 A30 RMK A01 T02710146  RH  046%=      5-min Rain = 0
KAM1 180504Z 17011KT 27/15 A30 RMK A01 T02710147  RH  047%=      5-min Rain = 0
KAM1 180505Z 17010KT 27/15 A30 RMK A01 T02700147  RH  047%=      5-min Rain = 0
KAM1 180506Z 17012KT 27/15 A30 RMK A01 T02690146  RH  047%=      5-min Rain = 0
KAM1 180507Z 17011KT 27/15 A30 RMK A01 T02690147  RH  047%=      5-min Rain = 0
KAM1 180508Z 17011KT 27/15 A3001 RMK A01 T02690147  RH  047%=      5-min Rain = 0
KAM1 180509Z 17011KT 27/15 A3001 RMK A01 T02680147  RH  047%=      5-min Rain = 0
KAM1 180510Z 17009KT 27/15 A3001 RMK A01 T02690147  RH  047%=      5-min Rain = 0
KAM1 180511Z 17009KT 27/15 A3001 RMK A01 T02680147  RH  047%=      5-min Rain = 0
KAM1 180512Z 17009KT 27/15 A3001 RMK A01 T02670147  RH  048%=      5-min Rain = 0
KAM1 180513Z 17011KT 27/15 A3001 RMK A01 T02670147  RH  048%=      5-min Rain = 0
KAM1 180514Z 17009KT 27/15 A3001 RMK A01 T02660147  RH  048%=      5-min Rain = 0
KAM1 180515Z 17010KT 27/15 A3001 RMK A01 T02660147  RH  048%=      5-min Rain = 0
KAM1 180516Z 17011KT 27/15 A3001 RMK A01 T02660147  RH  048%=      5-min Rain = 0
KAM1 180517Z 17009KT 27/15 A3001 RMK A01 T02660147  RH  048%=      5-min Rain = 0
KAM1 180518Z 17010KT 27/15 A3001 RMK A01 T02650147  RH  048%=      5-min Rain = 0
KAM1 180519Z 17009KT 27/15 A3001 RMK A01 T02650147  RH  048%=      5-min Rain = 0
KAM1 180520Z 17011KT 27/15 A3001 RMK A01 T02650147  RH  048%=      5-min Rain = 0
KAM1 180521Z 17012KT 26/15 A3001 RMK A01 T02640147  RH  048%=      5-min Rain = 0
KAM1 180522Z 17010KT 27/15 A3001 RMK A01 T02650147  RH  048%=      5-min Rain = 0
KAM1 180523Z 17010KT 27/15 A3001 RMK A01 T02650147  RH  048%=      5-min Rain = 0
KAM1 180524Z 17010KT 27/15 A3001 RMK A01 T02650147  RH  048%=      5-min Rain = 0
KAM1 180525Z 17011KT 26/15 A3001 RMK A01 T02640147  RH  049%=      5-min Rain = 0
KAM1 180526Z 17010KT 26/15 A3001 RMK A01 T02640148  RH  049%=      5-min Rain = 0
KAM1 180527Z 17010KT 26/15 A3001 RMK A01 T02640147  RH  049%=      5-min Rain = 0
KAM1 180528Z 17010KT 26/15 A3001 RMK A01 T02640148  RH  049%=      5-min Rain = 0
KAM1 180529Z 17009KT 26/15 A3001 RMK A01 T02630147  RH  049%=      5-min Rain = 0
KAM1 180530Z 17009KT 26/15 A3001 RMK A01 T02620147  RH  049%=      5-min Rain = 0
KAM1 180531Z 17010KT 26/15 A3001 RMK A01 T02620148  RH  049%=      5-min Rain = 0
KAM1 180532Z 17009KT 26/15 A3001 RMK A01 T02610147  RH  049%=      5-min Rain = 0
KAM1 180533Z 17009KT 26/15 A3001 RMK A01 T02610148  RH  050%=      5-min Rain = 0
KAM1 180534Z 17009KT 26/15 A3001 RMK A01 T02600147  RH  050%=      5-min Rain = 0
KAM1 180535Z 17009KT 26/15 A3001 RMK A01 T02600148  RH  050%=      5-min Rain = 0
KAM1 180536Z 17009KT 26/15 A3001 RMK A01 T02600148  RH  050%=      5-min Rain = 0
KAM1 180537Z 17010KT 26/15 A3001 RMK A01 T02600148  RH  050%=      5-min Rain = 0
KAM1 180538Z 17009KT 26/15 A3001 RMK A01 T02600148  RH  050%=      5-min Rain = 0
KAM1 180539Z 17007KT 26/15 A3001 RMK A01 T02600148  RH  050%=      5-min Rain = 0
KAM1 180540Z 17008KT 26/15 A3001 RMK A01 T02600148  RH  050%=      5-min Rain = 0
KAM1 180541Z 17007KT 26/15 A3001 RMK A01 T02600148  RH  050%=      5-min Rain = 0
KAM1 180542Z 17008KT 26/15 A3001 RMK A01 T02590149  RH  051%=      5-min Rain = 0
KAM1 180543Z 17007KT 26/15 A3001 RMK A01 T02590149  RH  051%=      5-min Rain = 0
KAM1 180544Z 17009KT 26/15 A3001 RMK A01 T02580149  RH  051%=      5-min Rain = 0
KAM1 180545Z 17010KT 26/15 A3001 RMK A01 T02580149  RH  051%=      5-min Rain = 0
KAM1 180546Z 17010KT 26/15 A3001 RMK A01 T02580149  RH  051%=      5-min Rain = 0
KAM1 180547Z 17010KT 26/15 A3001 RMK A01 T02580149  RH  051%=      5-min Rain = 0
KAM1 180548Z 17010KT 26/15 A3001 RMK A01 T02590149  RH  051%=      5-min Rain = 0
KAM1 180549Z 17010KT 26/15 A3001 RMK A01 T02590150  RH  051%=      5-min Rain = 0
KAM1 180550Z 17008KT 26/15 A3001 RMK A01 T02600150  RH  051%=      5-min Rain = 0
KAM1 180551Z 17009KT 26/15 A3001 RMK A01 T02600150  RH  051%=      5-min Rain = 0
KAM1 180552Z 18010KT 26/15 A3001 RMK A01 T02590150  RH  051%=      5-min Rain = 0
KAM1 180553Z 17010KT 26/15 A3001 RMK A01 T02590150  RH  051%=      5-min Rain = 0
KAM1 180554Z 18008KT 26/15 A3001 RMK A01 T02590150  RH  051%=      5-min Rain = 0
KAM1 180555Z 17008KT 26/15 A3001 RMK A01 T02590150  RH  051%=      5-min Rain = 0
KAM1 180556Z 17009KT 26/15 A3001 RMK A01 T02590150  RH  051%=      5-min Rain = 0
KAM1 180557Z 17008KT 26/15 A3001 RMK A01 T02580151  RH  051%=      5-min Rain = 0
KAM1 180558Z 17009KT 26/15 A3001 RMK A01 T02570151  RH  052%=      5-min Rain = 0
KAM1 180559Z 17009KT 26/15 A3001 RMK A01 T02570151  RH  052%=      5-min Rain = 0
KAM1 180600Z 17009KT 26/15 A3001 RMK A01 T02570151  RH  052%=      5-min Rain = 0
KAM1 180601Z 17008KT 26/15 A3001 RMK A01 T02560151  RH  052%=      5-min Rain = 0
KAM1 180602Z 17009KT 26/15 A3001 RMK A01 T02560151  RH  052%=      5-min Rain = 0
KAM1 180603Z 17010KT 26/15 A3001 RMK A01 T02550151  RH  052%=      5-min Rain = 0
KAM1 180604Z 17010KT 26/15 A3001 RMK A01 T02550151  RH  053%=      5-min Rain = 0
KAM1 180605Z 17010KT 26/15 A3001 RMK A01 T02550151  RH  053%=      5-min Rain = 0
KAM1 180606Z 17009KT 26/15 A3001 RMK A01 T02560152  RH  053%=      5-min Rain = 0
KAM1 180607Z 17009KT 26/15 A30 RMK A01 T02560152  RH  053%=      5-min Rain = 0
KAM1 180608Z 17009KT 26/15 A30 RMK A01 T02560152  RH  053%=      5-min Rain = 0
KAM1 180609Z 17009KT 26/15 A30 RMK A01 T02550152  RH  053%=      5-min Rain = 0
KAM1 180610Z 17010KT 26/15 A30 RMK A01 T02550153  RH  053%=      5-min Rain = 0
KAM1 180611Z 17010KT 25/15 A30 RMK A01 T02540153  RH  053%=      5-min Rain = 0
KAM1 180612Z 17010KT 25/15 A30 RMK A01 T02540153  RH  053%=      5-min Rain = 0
KAM1 180613Z 17009KT 25/15 A30 RMK A01 T02540153  RH  053%=      5-min Rain = 0
KAM1 180614Z 17009KT 25/15 A30 RMK A01 T02540153  RH  054%=      5-min Rain = 0
KAM1 180615Z 17009KT 25/15 A30 RMK A01 T02540154  RH  054%=      5-min Rain = 0
KAM1 180616Z 17009KT 25/15 A30 RMK A01 T02530153  RH  054%=      5-min Rain = 0
KAM1 180617Z 17008KT 25/15 A30 RMK A01 T02530154  RH  054%=      5-min Rain = 0
KAM1 180618Z 17009KT 25/15 A30 RMK A01 T02530154  RH  054%=      5-min Rain = 0
KAM1 180619Z 17010KT 25/15 A30 RMK A01 T02520154  RH  054%=      5-min Rain = 0
KAM1 180620Z 17008KT 25/15 A30 RMK A01 T02520154  RH  054%=      5-min Rain = 0
KAM1 180621Z 17009KT 25/15 A30 RMK A01 T02520154  RH  055%=      5-min Rain = 0
KAM1 180622Z 17009KT 25/15 A30 RMK A01 T02510154  RH  055%=      5-min Rain = 0
KAM1 180623Z 17009KT 25/15 A30 RMK A01 T02510154  RH  055%=      5-min Rain = 0
KAM1 180624Z 17010KT 25/16 A30 RMK A01 T02520155  RH  055%=      5-min Rain = 0
KAM1 180625Z 17009KT 25/16 A30 RMK A01 T02530155  RH  055%=      5-min Rain = 0
KAM1 180626Z 17010KT 25/16 A30 RMK A01 T02530155  RH  055%=      5-min Rain = 0
KAM1 180627Z 17010KT 25/16 A30 RMK A01 T02530155  RH  055%=      5-min Rain = 0
KAM1 180628Z 17009KT 25/16 A30 RMK A01 T02530155  RH  055%=      5-min Rain = 0
KAM1 180629Z 17008KT 25/16 A30 RMK A01 T02530155  RH  055%=      5-min Rain = 0
KAM1 180630Z 17008KT 25/16 A30 RMK A01 T02520155  RH  055%=      5-min Rain = 0
KAM1 180631Z 17009KT 25/16 A30 RMK A01 T02520156  RH  055%=      5-min Rain = 0
KAM1 180632Z 17009KT 25/16 A30 RMK A01 T02510156  RH  055%=      5-min Rain = 0
KAM1 180633Z 17010KT 25/16 A30 RMK A01 T02510156  RH  056%=      5-min Rain = 0
KAM1 180634Z 16009KT 25/16 A30 RMK A01 T02510156  RH  056%=      5-min Rain = 0
KAM1 180635Z 17008KT 25/16 A30 RMK A01 T02510156  RH  056%=      5-min Rain = 0
KAM1 180636Z 17008KT 25/16 A30 RMK A01 T02510156  RH  056%=      5-min Rain = 0
KAM1 180637Z 17009KT 25/16 A30 RMK A01 T02500156  RH  056%=      5-min Rain = 0
KAM1 180638Z 17009KT 25/16 A30 RMK A01 T02500156  RH  056%=      5-min Rain = 0
KAM1 180639Z 17009KT 25/16 A30 RMK A01 T02500156  RH  056%=      5-min Rain = 0
KAM1 180640Z 17009KT 25/16 A30 RMK A01 T02500157  RH  056%=      5-min Rain = 0
KAM1 180641Z 17010KT 25/16 A30 RMK A01 T02490157  RH  056%=      5-min Rain = 0
KAM1 180642Z 17009KT 25/16 A30 RMK A01 T02490156  RH  056%=      5-min Rain = 0
KAM1 180643Z 17008KT 25/16 A2999 RMK A01 T02500157  RH  056%=      5-min Rain = 0
KAM1 180644Z 17010KT 25/16 A2999 RMK A01 T02500157  RH  056%=      5-min Rain = 0
KAM1 180645Z 17010KT 25/16 A2999 RMK A01 T02500157  RH  056%=      5-min Rain = 0
KAM1 180646Z 17009KT 25/16 A2999 RMK A01 T02500157  RH  056%=      5-min Rain = 0
KAM1 180647Z 17010KT 25/16 A2999 RMK A01 T02500157  RH  056%=      5-min Rain = 0
KAM1 180648Z 16010KT 25/16 A2999 RMK A01 T02500157  RH  056%=      5-min Rain = 0
KAM1 180649Z 17010KT 25/16 A2998 RMK A01 T02500157  RH  056%=      5-min Rain = 0
KAM1 180650Z 17010KT 25/16 A2998 RMK A01 T02500157  RH  056%=      5-min Rain = 0
KAM1 180651Z 17010KT 25/16 A2998 RMK A01 T02500157  RH  056%=      5-min Rain = 0
KAM1 180652Z 16010KT 25/16 A2998 RMK A01 T02500157  RH  056%=      5-min Rain = 0
KAM1 180653Z 17011KT 25/16 A2998 RMK A01 T02500157  RH  056%=      5-min Rain = 0
KAM1 180654Z 17010KT 25/16 A2998 RMK A01 T02500157  RH  056%=      5-min Rain = 0
KAM1 180655Z 17010KT 25/16 A2998 RMK A01 T02500157  RH  057%=      5-min Rain = 0
KAM1 180656Z 16010KT 25/16 A2998 RMK A01 T02500158  RH  057%=      5-min Rain = 0
KAM1 180657Z 16009KT 25/16 A2998 RMK A01 T02500158  RH  057%=      5-min Rain = 0
KAM1 180658Z 17010KT 25/16 A2998 RMK A01 T02490158  RH  057%=      5-min Rain = 0
KAM1 180659Z 16011KT 25/16 A2998 RMK A01 T02480158  RH  057%=      5-min Rain = 0
KAM1 180700Z 16011KT 25/16 A2998 RMK A01 T02480157  RH  057%=      5-min Rain = 0
KAM1 180701Z 16010KT 25/16 A2998 RMK A01 T02490158  RH  057%=      5-min Rain = 0
KAM1 180702Z 16012KT 25/16 A2998 RMK A01 T02490158  RH  057%=      5-min Rain = 0
KAM1 180703Z 16010KT 25/16 A2998 RMK A01 T02490158  RH  057%=      5-min Rain = 0
KAM1 180704Z 16011KT 25/16 A2998 RMK A01 T02490158  RH  057%=      5-min Rain = 0
KAM1 180705Z 16010KT 25/16 A2998 RMK A01 T02490158  RH  057%=      5-min Rain = 0
KAM1 180706Z 16010KT 25/16 A2998 RMK A01 T02490158  RH  057%=      5-min Rain = 0
KAM1 180707Z 17011KT 25/16 A2998 RMK A01 T02490157  RH  057%=      5-min Rain = 0
KAM1 180708Z 17009KT 25/16 A2998 RMK A01 T02490158  RH  057%=      5-min Rain = 0
KAM1 180709Z 17010KT 25/16 A2998 RMK A01 T02490158  RH  057%=      5-min Rain = 0
KAM1 180710Z 17011KT 25/16 A2998 RMK A01 T02480158  RH  057%=      5-min Rain = 0
KAM1 180711Z 17011KT 25/16 A2998 RMK A01 T02480157  RH  057%=      5-min Rain = 0
KAM1 180712Z 17011KT 25/16 A2998 RMK A01 T02490157  RH  057%=      5-min Rain = 0
KAM1 180713Z 17010KT 25/16 A2998 RMK A01 T02500157  RH  056%=      5-min Rain = 0
KAM1 180714Z 17011KT 25/16 A2998 RMK A01 T02500157  RH  056%=      5-min Rain = 0
KAM1 180715Z 17010KT 25/16 A2998 RMK A01 T02500157  RH  056%=      5-min Rain = 0
KAM1 180716Z 17008KT 25/16 A2998 RMK A01 T02490157  RH  057%=      5-min Rain = 0
KAM1 180717Z 16009KT 25/16 A2998 RMK A01 T02480157  RH  057%=      5-min Rain = 0
KAM1 180718Z 17010KT 25/16 A2998 RMK A01 T02470157  RH  057%=      5-min Rain = 0
KAM1 180719Z 17010KT 25/16 A2998 RMK A01 T02470156  RH  057%=      5-min Rain = 0
KAM1 180720Z 17011KT 25/16 A2998 RMK A01 T02470156  RH  057%=      5-min Rain = 0
KAM1 180721Z 17011KT 25/16 A2998 RMK A01 T02480156  RH  057%=      5-min Rain = 0
KAM1 180722Z 17011KT 25/16 A2998 RMK A01 T02490156  RH  056%=      5-min Rain = 0
KAM1 180723Z 17010KT 25/16 A2998 RMK A01 T02490156  RH  056%=      5-min Rain = 0
KAM1 180724Z 17009KT 25/16 A2998 RMK A01 T02490156  RH  056%=      5-min Rain = 0
KAM1 180725Z 17012KT 25/16 A2998 RMK A01 T02490157  RH  056%=      5-min Rain = 0
KAM1 180726Z 17010KT 25/16 A2998 RMK A01 T02480156  RH  056%=      5-min Rain = 0
KAM1 180727Z 17011KT 25/16 A2998 RMK A01 T02480156  RH  057%=      5-min Rain = 0
KAM1 180728Z 17011KT 25/16 A2998 RMK A01 T02480156  RH  057%=      5-min Rain = 0
KAM1 180729Z 17010KT 25/16 A2998 RMK A01 T02480156  RH  057%=      5-min Rain = 0
KAM1 180730Z 17011KT 25/16 A2998 RMK A01 T02470156  RH  057%=      5-min Rain = 0
KAM1 180731Z 16010KT 25/16 A2998 RMK A01 T02470155  RH  056%=      5-min Rain = 0
KAM1 180732Z 17009KT 25/16 A2998 RMK A01 T02470155  RH  056%=      5-min Rain = 0
KAM1 180733Z 17011KT 25/16 A2998 RMK A01 T02470155  RH  057%=      5-min Rain = 0
KAM1 180734Z 17011KT 25/16 A2998 RMK A01 T02470155  RH  057%=      5-min Rain = 0
KAM1 180735Z 17009KT 25/16 A2998 RMK A01 T02470155  RH  057%=      5-min Rain = 0
KAM1 180736Z 17011KT 25/16 A2998 RMK A01 T02470155  RH  057%=      5-min Rain = 0
KAM1 180737Z 17011KT 25/16 A2998 RMK A01 T02460155  RH  057%=      5-min Rain = 0
KAM1 180738Z 17011KT 25/15 A2998 RMK A01 T02460154  RH  057%=      5-min Rain = 0
KAM1 180739Z 17011KT 25/15 A2998 RMK A01 T02460154  RH  057%=      5-min Rain = 0
KAM1 180740Z 17011KT 25/15 A2998 RMK A01 T02460154  RH  057%=      5-min Rain = 0
KAM1 180741Z 17012KT 25/15 A2998 RMK A01 T02460154  RH  057%=      5-min Rain = 0
KAM1 180742Z 17010KT 25/15 A2998 RMK A01 T02460154  RH  057%=      5-min Rain = 0
KAM1 180743Z 17010KT 25/15 A2998 RMK A01 T02450154  RH  057%=      5-min Rain = 0
KAM1 180744Z 17011KT 25/15 A2998 RMK A01 T02450154  RH  057%=      5-min Rain = 0
KAM1 180745Z 17011KT 25/15 A2998 RMK A01 T02450154  RH  057%=      5-min Rain = 0
KAM1 180746Z 17013KT 25/15 A2998 RMK A01 T02450154  RH  057%=      5-min Rain = 0
KAM1 180747Z 18011KT 25/15 A2998 RMK A01 T02450153  RH  057%=      5-min Rain = 0
KAM1 180748Z 18011KT 25/15 A2998 RMK A01 T02450154  RH  057%=      5-min Rain = 0
KAM1 180749Z 17009KT 24/15 A2998 RMK A01 T02440153  RH  057%=      5-min Rain = 0
KAM1 180750Z 17009KT 24/15 A2998 RMK A01 T02430153  RH  057%=      5-min Rain = 0
KAM1 180751Z 17010KT 24/15 A2998 RMK A01 T02430153  RH  057%=      5-min Rain = 0
KAM1 180752Z 17010KT 24/15 A2998 RMK A01 T02420153  RH  057%=      5-min Rain = 0
KAM1 180753Z 18010KT 24/15 A2998 RMK A01 T02420153  RH  058%=      5-min Rain = 0
KAM1 180754Z 18010KT 24/15 A2998 RMK A01 T02410153  RH  058%=      5-min Rain = 0
KAM1 180755Z 18009KT 24/15 A2998 RMK A01 T02420153  RH  058%=      5-min Rain = 0
KAM1 180756Z 18011KT 24/15 A2998 RMK A01 T02410153  RH  058%=      5-min Rain = 0
KAM1 180757Z 18010KT 24/15 A2998 RMK A01 T02410152  RH  058%=      5-min Rain = 0
KAM1 180758Z 18010G15KT 24/15 A2998 RMK A01 T02410152  RH  058%=      5-min Rain = 0
KAM1 180759Z 18010KT 24/15 A2998 RMK A01 T02410152  RH  058%=      5-min Rain = 0
KAM1 180800Z 18010KT 24/15 A2998 RMK A01 T02410152  RH  058%=      5-min Rain = 0
KAM1 180801Z 18011KT 24/15 A2998 RMK A01 T02410152  RH  058%=      5-min Rain = 0
KAM1 180802Z 18009KT 24/15 A2998 RMK A01 T02400152  RH  058%=      5-min Rain = 0
KAM1 180803Z 18010KT 24/15 A2998 RMK A01 T02400152  RH  058%=      5-min Rain = 0
KAM1 180804Z 19012KT 24/15 A2998 RMK A01 T02400152  RH  058%=      5-min Rain = 0
KAM1 180805Z 19011KT 24/15 A2998 RMK A01 T02400152  RH  058%=      5-min Rain = 0
KAM1 180806Z 18010KT 24/15 A2998 RMK A01 T02410152  RH  057%=      5-min Rain = 0
KAM1 180807Z 19013KT 24/15 A2998 RMK A01 T02410152  RH  057%=      5-min Rain = 0
KAM1 180808Z 19011KT 24/15 A2998 RMK A01 T02410152  RH  057%=      5-min Rain = 0
KAM1 180809Z 19011KT 24/15 A2998 RMK A01 T02420152  RH  057%=      5-min Rain = 0
KAM1 180810Z 19011KT 24/15 A2998 RMK A01 T02420152  RH  057%=      5-min Rain = 0
KAM1 180811Z 19011KT 24/15 A2998 RMK A01 T02420152  RH  057%=      5-min Rain = 0
KAM1 180812Z 18011KT 24/15 A2998 RMK A01 T02420152  RH  057%=      5-min Rain = 0
KAM1 180813Z 19011KT 24/15 A2998 RMK A01 T02420152  RH  057%=      5-min Rain = 0
KAM1 180814Z 19010KT 24/15 A2998 RMK A01 T02410152  RH  057%=      5-min Rain = 0
KAM1 180815Z 19012KT 24/15 A2998 RMK A01 T02420152  RH  057%=      5-min Rain = 0
KAM1 180816Z 19011KT 24/15 A2998 RMK A01 T02430152  RH  057%=      5-min Rain = 0
KAM1 180817Z 20012KT 24/15 A2998 RMK A01 T02440152  RH  056%=      5-min Rain = 0
KAM1 180818Z 19012KT 25/15 A2998 RMK A01 T02450153  RH  056%=      5-min Rain = 0
KAM1 180819Z 19012KT 25/15 A2998 RMK A01 T02460153  RH  056%=      5-min Rain = 0
KAM1 180820Z 20011KT 25/15 A2998 RMK A01 T02460152  RH  056%=      5-min Rain = 0
KAM1 180821Z 19012KT 25/15 A2998 RMK A01 T02460152  RH  056%=      5-min Rain = 0
KAM1 180822Z 19013KT 25/15 A2998 RMK A01 T02470153  RH  056%=      5-min Rain = 0
KAM1 180823Z 20012KT 25/15 A2998 RMK A01 T02470153  RH  056%=      5-min Rain = 0
KAM1 180824Z 19012KT 25/15 A2998 RMK A01 T02480153  RH  055%=      5-min Rain = 0
KAM1 180825Z 20011KT 25/15 A2998 RMK A01 T02480152  RH  055%=      5-min Rain = 0
KAM1 180826Z 20014KT 25/15 A2998 RMK A01 T02480152  RH  055%=      5-min Rain = 0
KAM1 180827Z 20012KT 25/15 A2998 RMK A01 T02490153  RH  055%=      5-min Rain = 0
KAM1 180828Z 20012G17KT 25/15 A2998 RMK A01 T02500153  RH  055%=      5-min Rain = 0
KAM1 180829Z 20012KT 25/15 A2998 RMK A01 T02500153  RH  055%=      5-min Rain = 0
KAM1 180830Z 20010KT 25/15 A2998 RMK A01 T02490153  RH  055%=      5-min Rain = 0
KAM1 180831Z 20014KT 25/15 A2998 RMK A01 T02490153  RH  055%=      5-min Rain = 0
KAM1 180832Z 20012KT 25/15 A2998 RMK A01 T02490153  RH  055%=      5-min Rain = 0
KAM1 180833Z 20013KT 25/15 A2998 RMK A01 T02500153  RH  055%=      5-min Rain = 0
KAM1 180834Z 20011KT 25/15 A2998 RMK A01 T02500153  RH  055%=      5-min Rain = 0
KAM1 180835Z 20011KT 25/15 A2998 RMK A01 T02500153  RH  055%=      5-min Rain = 0
KAM1 180836Z 20011KT 25/15 A2998 RMK A01 T02490153  RH  055%=      5-min Rain = 0
KAM1 180837Z 20013KT 25/15 A2998 RMK A01 T02490154  RH  056%=      5-min Rain = 0
KAM1 180838Z 20012KT 25/15 A2998 RMK A01 T02480154  RH  056%=      5-min Rain = 0
KAM1 180839Z 20013KT 25/15 A2997 RMK A01 T02490154  RH  056%=      5-min Rain = 0
KAM1 180840Z 20015KT 25/15 A2997 RMK A01 T02490154  RH  056%=      5-min Rain = 0
KAM1 180841Z 20013KT 25/15 A2997 RMK A01 T02490154  RH  055%=      5-min Rain = 0
KAM1 180842Z 20012KT 25/15 A2997 RMK A01 T02490154  RH  055%=      5-min Rain = 0
KAM1 180843Z 20012KT 25/16 A2997 RMK A01 T02490155  RH  056%=      5-min Rain = 0
KAM1 180844Z 20015KT 25/15 A2997 RMK A01 T02490154  RH  056%=      5-min Rain = 0
KAM1 180845Z 20016KT 25/15 A2997 RMK A01 T02490154  RH  056%=      5-min Rain = 0
KAM1 180846Z 20015KT 25/16 A2997 RMK A01 T02500155  RH  055%=      5-min Rain = 0
KAM1 180847Z 20015KT 25/16 A2997 RMK A01 T02510155  RH  055%=      5-min Rain = 0
KAM1 180848Z 21014G19KT 25/16 A2997 RMK A01 T02510155  RH  055%=      5-min Rain = 0
KAM1 180849Z 21016KT 25/16 A2997 RMK A01 T02510155  RH  055%=      5-min Rain = 0
KAM1 180850Z 20014KT 25/16 A2997 RMK A01 T02510155  RH  055%=      5-min Rain = 0
KAM1 180851Z 21015KT 25/16 A2998 RMK A01 T02510156  RH  055%=      5-min Rain = 0
KAM1 180852Z 21015KT 25/16 A2998 RMK A01 T02510156  RH  055%=      5-min Rain = 0
KAM1 180853Z 20012KT 25/16 A2998 RMK A01 T02510156  RH  055%=      5-min Rain = 0
KAM1 180854Z 20015KT 25/16 A2998 RMK A01 T02510156  RH  055%=      5-min Rain = 0
KAM1 180855Z 20013KT 25/16 A2998 RMK A01 T02510156  RH  056%=      5-min Rain = 0
KAM1 180856Z 21015KT 25/16 A2998 RMK A01 T02510156  RH  056%=      5-min Rain = 0
KAM1 180857Z 21015KT 25/16 A2998 RMK A01 T02510156  RH  056%=      5-min Rain = 0
KAM1 180858Z 20015G20KT 25/16 A2998 RMK A01 T02510156  RH  056%=      5-min Rain = 0
KAM1 180859Z 21015KT 25/16 A2998 RMK A01 T02520156  RH  056%=      5-min Rain = 0
KAM1 180900Z 20013KT 25/16 A2998 RMK A01 T02510156  RH  056%=      5-min Rain = 0
KAM1 180901Z 21014KT 25/16 A2998 RMK A01 T02520157  RH  056%=      5-min Rain = 0
KAM1 180902Z 21017KT 25/16 A2998 RMK A01 T02520157  RH  056%=      5-min Rain = 0
KAM1 180903Z 21017KT 25/16 A2998 RMK A01 T02520157  RH  056%=      5-min Rain = 0
KAM1 180904Z 21017KT 25/16 A2998 RMK A01 T02520157  RH  055%=      5-min Rain = 0
KAM1 180905Z 21015G21KT 25/16 A2998 RMK A01 T02530157  RH  055%=      5-min Rain = 0
KAM1 180906Z 21012KT 25/16 A2998 RMK A01 T02520157  RH  055%=      5-min Rain = 0
KAM1 180907Z 21014KT 25/16 A2998 RMK A01 T02520157  RH  056%=      5-min Rain = 0
KAM1 180908Z 20015KT 25/16 A2998 RMK A01 T02510157  RH  056%=      5-min Rain = 0
KAM1 180909Z 21012G17KT 25/16 A2998 RMK A01 T02510157  RH  056%=      5-min Rain = 0
KAM1 180910Z 20013KT 25/16 A2998 RMK A01 T02510157  RH  056%=      5-min Rain = 0
KAM1 180911Z 20013KT 25/16 A2998 RMK A01 T02510157  RH  056%=      5-min Rain = 0
KAM1 180912Z 21015KT 25/16 A2998 RMK A01 T02500157  RH  056%=      5-min Rain = 0
KAM1 180913Z 20015KT 25/16 A2998 RMK A01 T02510157  RH  056%=      5-min Rain = 0
KAM1 180914Z 21018KT 25/16 A2998 RMK A01 T02510157  RH  056%=      5-min Rain = 0
KAM1 180915Z 20013KT 25/16 A2998 RMK A01 T02510157  RH  056%=      5-min Rain = 0
KAM1 180916Z 20012KT 25/16 A2998 RMK A01 T02510157  RH  056%=      5-min Rain = 0
KAM1 180917Z 20013G18KT 25/16 A2998 RMK A01 T02500157  RH  056%=      5-min Rain = 0
KAM1 180918Z 21013G18KT 25/16 A2998 RMK A01 T02500157  RH  056%=      5-min Rain = 0
KAM1 180919Z 20013KT 25/16 A2998 RMK A01 T02500157  RH  056%=      5-min Rain = 0
KAM1 180920Z 20014KT 25/16 A2998 RMK A01 T02500157  RH  056%=      5-min Rain = 0
KAM1 180921Z 20011G16KT 25/16 A2998 RMK A01 T02500157  RH  056%=      5-min Rain = 0
KAM1 180922Z 20010KT 25/16 A2998 RMK A01 T02490157  RH  057%=      5-min Rain = 0
KAM1 180923Z 20011G18KT 25/16 A2998 RMK A01 T02480157  RH  057%=      5-min Rain = 0
KAM1 180924Z 20013KT 25/16 A2998 RMK A01 T02480157  RH  057%=      5-min Rain = 0
KAM1 180925Z 20010KT 25/16 A2998 RMK A01 T02480157  RH  057%=      5-min Rain = 0
KAM1 180926Z 21010G15KT 25/16 A2998 RMK A01 T02480157  RH  057%=      5-min Rain = 0
KAM1 180927Z 20011KT 25/16 A2998 RMK A01 T02480158  RH  057%=      5-min Rain = 0
KAM1 180928Z 20010KT 25/16 A2999 RMK A01 T02480158  RH  057%=      5-min Rain = 0
KAM1 180929Z 20008KT 25/16 A2999 RMK A01 T02480158  RH  057%=      5-min Rain = 0
KAM1 180930Z 20008KT 25/16 A2999 RMK A01 T02470158  RH  058%=      5-min Rain = 0
KAM1 180931Z 20010KT 25/16 A2999 RMK A01 T02460158  RH  058%=      5-min Rain = 0
KAM1 180932Z 20009KT 25/16 A2999 RMK A01 T02450158  RH  058%=      5-min Rain = 0
KAM1 180933Z 20012KT 25/16 A2999 RMK A01 T02450158  RH  058%=      5-min Rain = 0
KAM1 180934Z 20010KT 25/16 A2999 RMK A01 T02450158  RH  058%=      5-min Rain = 0
KAM1 180935Z 20010KT 25/16 A2999 RMK A01 T02460158  RH  058%=      5-min Rain = 0
KAM1 180936Z 20011G16KT 25/16 A2999 RMK A01 T02460158  RH  058%=      5-min Rain = 0
KAM1 180937Z 19009KT 25/16 A2999 RMK A01 T02450158  RH  058%=      5-min Rain = 0
KAM1 180938Z 19012KT 25/16 A2999 RMK A01 T02450158  RH  058%=      5-min Rain = 0
KAM1 180939Z 20012KT 25/16 A2999 RMK A01 T02450158  RH  058%=      5-min Rain = 0
KAM1 180940Z 20015KT 25/16 A2999 RMK A01 T02450158  RH  058%=      5-min Rain = 0
KAM1 180941Z 19013KT 25/16 A2998 RMK A01 T02460158  RH  058%=      5-min Rain = 0
KAM1 180942Z 20012KT 25/16 A2998 RMK A01 T02460158  RH  058%=      5-min Rain = 0
KAM1 180943Z 19011KT 25/16 A2998 RMK A01 T02460158  RH  058%=      5-min Rain = 0
KAM1 180944Z 19012KT 25/16 A2998 RMK A01 T02460158  RH  058%=      5-min Rain = 0
KAM1 180945Z 20011KT 25/16 A2998 RMK A01 T02450158  RH  058%=      5-min Rain = 0
KAM1 180946Z 20012KT 24/16 A2999 RMK A01 T02440158  RH  059%=      5-min Rain = 0
KAM1 180947Z 20010KT 24/16 A2999 RMK A01 T02440158  RH  059%=      5-min Rain = 0
KAM1 180948Z 20011G16KT 24/16 A2999 RMK A01 T02440159  RH  059%=      5-min Rain = 0
KAM1 180949Z 20013KT 24/16 A2999 RMK A01 T02440158  RH  059%=      5-min Rain = 0
KAM1 180950Z 20012KT 24/16 A2999 RMK A01 T02430158  RH  059%=      5-min Rain = 0
KAM1 180951Z 19012KT 24/16 A2999 RMK A01 T02430158  RH  059%=      5-min Rain = 0
KAM1 180952Z 20011KT 24/16 A2999 RMK A01 T02430158  RH  059%=      5-min Rain = 0
KAM1 180953Z 19012KT 24/16 A2999 RMK A01 T02430158  RH  059%=      5-min Rain = 0
KAM1 180954Z 20013KT 24/16 A2999 RMK A01 T02430158  RH  059%=      5-min Rain = 0
KAM1 180955Z 20014KT 24/16 A2999 RMK A01 T02430158  RH  059%=      5-min Rain = 0
KAM1 180956Z 20009KT 24/16 A2999 RMK A01 T02440158  RH  059%=      5-min Rain = 0
KAM1 180957Z 19010KT 24/16 A2999 RMK A01 T02430158  RH  059%=      5-min Rain = 0
KAM1 180958Z 19011G17KT 24/16 A2999 RMK A01 T02420158  RH  059%=      5-min Rain = 0
KAM1 180959Z 20016KT 24/16 A2999 RMK A01 T02420158  RH  060%=      5-min Rain = 0
KAM1 181000Z 20013KT 24/16 A2999 RMK A01 T02430158  RH  059%=      5-min Rain = 0
KAM1 181001Z 20015KT 24/16 A2999 RMK A01 T02430158  RH  059%=      5-min Rain = 0
KAM1 181002Z 20012KT 24/16 A2999 RMK A01 T02430159  RH  059%=      5-min Rain = 0
KAM1 181003Z 20012KT 24/16 A2999 RMK A01 T02430158  RH  059%=      5-min Rain = 0
KAM1 181004Z 21009KT 24/16 A2999 RMK A01 T02430159  RH  059%=      5-min Rain = 0
KAM1 181005Z 20012KT 24/16 A2999 RMK A01 T02420158  RH  059%=      5-min Rain = 0
KAM1 181006Z 20012KT 24/16 A2999 RMK A01 T02420158  RH  060%=      5-min Rain = 0
KAM1 181007Z 21013KT 24/16 A2999 RMK A01 T02420158  RH  060%=      5-min Rain = 0
KAM1 181008Z 20013KT 24/16 A2999 RMK A01 T02420158  RH  060%=      5-min Rain = 0
KAM1 181009Z 20013KT 24/16 A2999 RMK A01 T02420158  RH  060%=      5-min Rain = 0
KAM1 181010Z 20013KT 24/16 A2999 RMK A01 T02420158  RH  060%=      5-min Rain = 0
KAM1 181011Z 20011KT 24/16 A2999 RMK A01 T02420159  RH  060%=      5-min Rain = 0
KAM1 181012Z 20013KT 24/16 A2999 RMK A01 T02420159  RH  060%=      5-min Rain = 0
KAM1 181013Z 19009KT 24/16 A2999 RMK A01 T02410158  RH  060%=      5-min Rain = 0
KAM1 181014Z 20008G14KT 24/16 A2999 RMK A01 T02410159  RH  060%=      5-min Rain = 0
KAM1 181015Z 19011KT 24/16 A2999 RMK A01 T02400158  RH  060%=      5-min Rain = 0
KAM1 181016Z 20011KT 24/16 A2999 RMK A01 T02400159  RH  060%=      5-min Rain = 0
KAM1 181017Z 20013KT 24/16 A2999 RMK A01 T02390159  RH  061%=      5-min Rain = 0
KAM1 181018Z 20011KT 24/16 A2999 RMK A01 T02400159  RH  061%=      5-min Rain = 0
KAM1 181019Z 20010KT 24/16 A2999 RMK A01 T02400159  RH  061%=      5-min Rain = 0
KAM1 181020Z 20011KT 24/16 A2999 RMK A01 T02390159  RH  061%=      5-min Rain = 0
KAM1 181021Z 20008KT 24/16 A2999 RMK A01 T02390159  RH  061%=      5-min Rain = 0
KAM1 181022Z 20009KT 24/16 A2999 RMK A01 T02380159  RH  061%=      5-min Rain = 0
KAM1 181023Z 20009KT 24/16 A30 RMK A01 T02380159  RH  061%=      5-min Rain = 0
KAM1 181024Z 20010KT 24/16 A2999 RMK A01 T02370159  RH  061%=      5-min Rain = 0
KAM1 181025Z 20010KT 24/16 A2999 RMK A01 T02370159  RH  062%=      5-min Rain = 0
KAM1 181026Z 20012KT 24/16 A2999 RMK A01 T02370159  RH  062%=      5-min Rain = 0
KAM1 181027Z 20013KT 24/16 A2999 RMK A01 T02370159  RH  062%=      5-min Rain = 0
KAM1 181028Z 19011KT 24/16 A2999 RMK A01 T02370159  RH  061%=      5-min Rain = 0
KAM1 181029Z 20011KT 24/16 A30 RMK A01 T02380159  RH  061%=      5-min Rain = 0
KAM1 181030Z 19012KT 24/16 A2999 RMK A01 T02380160  RH  061%=      5-min Rain = 0
KAM1 181031Z 19010G15KT 24/16 A2999 RMK A01 T02380160  RH  061%=      5-min Rain = 0
KAM1 181032Z 19011KT 24/16 A2999 RMK A01 T02380160  RH  061%=      5-min Rain = 0
KAM1 181033Z 19010KT 24/16 A2999 RMK A01 T02380160  RH  061%=      5-min Rain = 0
KAM1 181034Z 20010KT 24/16 A2999 RMK A01 T02380160  RH  061%=      5-min Rain = 0
KAM1 181035Z 19008KT 24/16 A2999 RMK A01 T02380160  RH  061%=      5-min Rain = 0
KAM1 181036Z 19010KT 24/16 A2999 RMK A01 T02370160  RH  062%=      5-min Rain = 0
KAM1 181037Z 20012KT 24/16 A2999 RMK A01 T02360159  RH  062%=      5-min Rain = 0
KAM1 181038Z 20010KT 24/16 A2999 RMK A01 T02360159  RH  062%=      5-min Rain = 0
KAM1 181039Z 19010KT 24/16 A2999 RMK A01 T02360160  RH  062%=      5-min Rain = 0
KAM1 181040Z 20009KT 24/16 A2999 RMK A01 T02360159  RH  062%=      5-min Rain = 0
KAM1 181041Z 20011KT 24/16 A2999 RMK A01 T02360160  RH  062%=      5-min Rain = 0
KAM1 181042Z 19010KT 24/16 A2999 RMK A01 T02360160  RH  062%=      5-min Rain = 0
KAM1 181043Z 19011KT 24/16 A2999 RMK A01 T02360159  RH  062%=      5-min Rain = 0
KAM1 181044Z 19011KT 24/16 A2999 RMK A01 T02360160  RH  062%=      5-min Rain = 0
KAM1 181045Z 19010KT 24/16 A2999 RMK A01 T02350159  RH  062%=      5-min Rain = 0
KAM1 181046Z 19009KT 24/16 A2999 RMK A01 T02360160  RH  062%=      5-min Rain = 0
KAM1 181047Z 19011KT 24/16 A2999 RMK A01 T02350160  RH  063%=      5-min Rain = 0
KAM1 181048Z 19012KT 24/16 A2999 RMK A01 T02350160  RH  063%=      5-min Rain = 0
KAM1 181049Z 19011KT 24/16 A2999 RMK A01 T02350160  RH  063%=      5-min Rain = 0
KAM1 181050Z 19012KT 24/16 A2999 RMK A01 T02350160  RH  063%=      5-min Rain = 0
KAM1 181051Z 19012KT 24/16 A2999 RMK A01 T02360160  RH  062%=      5-min Rain = 0
KAM1 181052Z 19011G16KT 24/16 A2999 RMK A01 T02360160  RH  062%=      5-min Rain = 0
KAM1 181053Z 19013KT 24/16 A2999 RMK A01 T02360160  RH  062%=      5-min Rain = 0
KAM1 181054Z 19010KT 24/16 A2999 RMK A01 T02360160  RH  062%=      5-min Rain = 0
KAM1 181055Z 19009KT 24/16 A2999 RMK A01 T02370160  RH  062%=      5-min Rain = 0
KAM1 181056Z 19010KT 24/16 A2999 RMK A01 T02360160  RH  062%=      5-min Rain = 0
KAM1 181057Z 19010G15KT 24/16 A2999 RMK A01 T02350160  RH  063%=      5-min Rain = 0
KAM1 181058Z 20011KT 24/16 A2999 RMK A01 T02350160  RH  063%=      5-min Rain = 0
KAM1 181059Z 19010KT 24/16 A2999 RMK A01 T02350160  RH  063%=      5-min Rain = 0
KAM1 181100Z 19012KT 24/16 A2999 RMK A01 T02350160  RH  063%=      5-min Rain = 0
KAM1 181101Z 18009KT 24/16 A2999 RMK A01 T02360160  RH  062%=      5-min Rain = 0
KAM1 181102Z 19011KT 24/16 A2999 RMK A01 T02360160  RH  062%=      5-min Rain = 0
KAM1 181103Z 19010KT 24/16 A2999 RMK A01 T02360160  RH  062%=      5-min Rain = 0
KAM1 181104Z 19010KT 24/16 A2999 RMK A01 T02360160  RH  062%=      5-min Rain = 0
KAM1 181105Z 19011KT 24/16 A2999 RMK A01 T02350160  RH  063%=      5-min Rain = 0
KAM1 181106Z 19010KT 24/16 A2999 RMK A01 T02350160  RH  063%=      5-min Rain = 0
KAM1 181107Z 19009KT 24/16 A2999 RMK A01 T02350160  RH  063%=      5-min Rain = 0
KAM1 181108Z 19010KT 23/16 A2999 RMK A01 T02340160  RH  063%=      5-min Rain = 0
KAM1 181109Z 19009KT 23/16 A2999 RMK A01 T02340160  RH  063%=      5-min Rain = 0
KAM1 181110Z 19010KT 23/16 A2999 RMK A01 T02340160  RH  063%=      5-min Rain = 0
KAM1 181111Z 19010KT 23/16 A2999 RMK A01 T02340160  RH  063%=      5-min Rain = 0
KAM1 181112Z 19011KT 23/16 A2999 RMK A01 T02340160  RH  063%=      5-min Rain = 0
KAM1 181113Z 19011KT 23/16 A2999 RMK A01 T02340160  RH  063%=      5-min Rain = 0
KAM1 181114Z 19009KT 23/16 A2999 RMK A01 T02340160  RH  063%=      5-min Rain = 0
KAM1 181115Z 19011KT 23/16 A2999 RMK A01 T02340160  RH  063%=      5-min Rain = 0
KAM1 181116Z 18012KT 23/16 A2999 RMK A01 T02340160  RH  063%=      5-min Rain = 0
KAM1 181117Z 18012KT 23/16 A2999 RMK A01 T02340160  RH  063%=      5-min Rain = 0
KAM1 181118Z 19011KT 23/16 A2999 RMK A01 T02340160  RH  063%=      5-min Rain = 0
KAM1 181119Z 19010KT 23/16 A2999 RMK A01 T02340160  RH  063%=      5-min Rain = 0
KAM1 181120Z 19010KT 23/16 A2999 RMK A01 T02340160  RH  063%=      5-min Rain = 0
KAM1 181121Z 19009G14KT 23/16 A2999 RMK A01 T02330160  RH  064%=      5-min Rain = 0
KAM1 181122Z 19013KT 23/16 A2999 RMK A01 T02330160  RH  064%=      5-min Rain = 0
KAM1 181123Z 19011KT 23/16 A2999 RMK A01 T02330161  RH  064%=      5-min Rain = 0
KAM1 181124Z 19011KT 23/16 A2999 RMK A01 T02340161  RH  064%=      5-min Rain = 0
KAM1 181125Z 19014KT 23/16 A2999 RMK A01 T02340161  RH  064%=      5-min Rain = 0
KAM1 181126Z 19011KT 23/16 A2999 RMK A01 T02340161  RH  063%=      5-min Rain = 0
KAM1 181127Z 19011KT 23/16 A2999 RMK A01 T02340161  RH  063%=      5-min Rain = 0
KAM1 181128Z 19012KT 23/16 A2999 RMK A01 T02340161  RH  063%=      5-min Rain = 0
KAM1 181129Z 18011KT 23/16 A2999 RMK A01 T02340161  RH  063%=      5-min Rain = 0
KAM1 181130Z 18012KT 23/16 A2999 RMK A01 T02340161  RH  064%=      5-min Rain = 0
KAM1 181131Z 19010KT 23/16 A2999 RMK A01 T02340161  RH  064%=      5-min Rain = 0
KAM1 181132Z 19011KT 23/16 A2999 RMK A01 T02330161  RH  064%=      5-min Rain = 0
KAM1 181133Z 19012KT 23/16 A2999 RMK A01 T02330161  RH  064%=      5-min Rain = 0
KAM1 181134Z 19013KT 23/16 A2999 RMK A01 T02320161  RH  064%=      5-min Rain = 0
KAM1 181135Z 19012KT 23/16 A2999 RMK A01 T02330161  RH  064%=      5-min Rain = 0
KAM1 181136Z 20010KT 23/16 A2999 RMK A01 T02330161  RH  064%=      5-min Rain = 0
KAM1 181137Z 19008KT 23/16 A2999 RMK A01 T02320161  RH  064%=      5-min Rain = 0
KAM1 181138Z 20011KT 23/16 A2999 RMK A01 T02320161  RH  064%=      5-min Rain = 0
KAM1 181139Z 20010KT 23/16 A2999 RMK A01 T02310161  RH  065%=      5-min Rain = 0
KAM1 181140Z 19013KT 23/16 A2999 RMK A01 T02310161  RH  065%=      5-min Rain = 0
KAM1 181141Z 19009KT 23/16 A2999 RMK A01 T02300161  RH  065%=      5-min Rain = 0
KAM1 181142Z 19010KT 23/16 A2999 RMK A01 T02300161  RH  065%=      5-min Rain = 0
KAM1 181143Z 19011KT 23/16 A2999 RMK A01 T02300161  RH  065%=      5-min Rain = 0
KAM1 181144Z 19010KT 23/16 A2999 RMK A01 T02300161  RH  065%=      5-min Rain = 0
KAM1 181145Z 19010KT 23/16 A2999 RMK A01 T02300161  RH  065%=      5-min Rain = 0
KAM1 181146Z 19009KT 23/16 A2999 RMK A01 T02300161  RH  065%=      5-min Rain = 0
KAM1 181147Z 18009KT 23/16 A2999 RMK A01 T02300161  RH  065%=      5-min Rain = 0
KAM1 181148Z 19013KT 23/16 A2999 RMK A01 T02290161  RH  065%=      5-min Rain = 0
KAM1 181149Z 19011KT 23/16 A2999 RMK A01 T02300161  RH  065%=      5-min Rain = 0
KAM1 181150Z 18012KT 23/16 A2999 RMK A01 T02300161  RH  065%=      5-min Rain = 0
KAM1 181151Z 19011KT 23/16 A2999 RMK A01 T02310161  RH  065%=      5-min Rain = 0
KAM1 181152Z 19011KT 23/16 A2999 RMK A01 T02310161  RH  065%=      5-min Rain = 0
KAM1 181153Z 19010KT 23/16 A2999 RMK A01 T02300162  RH  065%=      5-min Rain = 0
KAM1 181154Z 19010KT 23/16 A2999 RMK A01 T02300161  RH  065%=      5-min Rain = 0
KAM1 181155Z 19008KT 23/16 A2999 RMK A01 T02300161  RH  065%=      5-min Rain = 0
KAM1 181156Z 19010KT 23/16 A2999 RMK A01 T02290161  RH  066%=      5-min Rain = 0
KAM1 181157Z 19013KT 23/16 A2999 RMK A01 T02290161  RH  066%=      5-min Rain = 0
KAM1 181158Z 18012KT 23/16 A2999 RMK A01 T02290161  RH  066%=      5-min Rain = 0
KAM1 181159Z 19011KT 23/16 A2999 RMK A01 T02300162  RH  065%=      5-min Rain = 0
KAM1 181200Z 19010KT 23/16 A2999 RMK A01 T02300162  RH  065%=      5-min Rain = 0
KAM1 181201Z 19010KT 23/16 A2999 RMK A01 T02290162  RH  066%=      5-min Rain = 0
KAM1 181202Z 19012KT 23/16 A2999 RMK A01 T02290161  RH  066%=      5-min Rain = 0
KAM1 181203Z 19014KT 23/16 A2999 RMK A01 T02290162  RH  066%=      5-min Rain = 0
KAM1 181204Z 18015KT 23/16 A2999 RMK A01 T02290162  RH  066%=      5-min Rain = 0
KAM1 181205Z 19012KT 23/16 A2999 RMK A01 T02300162  RH  065%=      5-min Rain = 0
KAM1 181206Z 19011G16KT 23/16 A2999 RMK A01 T02300162  RH  065%=      5-min Rain = 0
KAM1 181207Z 18010KT 23/16 A2999 RMK A01 T02300162  RH  065%=      5-min Rain = 0
KAM1 181208Z 18010KT 23/16 A2999 RMK A01 T02300162  RH  066%=      5-min Rain = 0
KAM1 181209Z 18011KT 23/16 A2999 RMK A01 T02290162  RH  066%=      5-min Rain = 0
KAM1 181210Z 18011KT 23/16 A2999 RMK A01 T02290162  RH  066%=      5-min Rain = 0
KAM1 181211Z 19012KT 23/16 A2999 RMK A01 T02290162  RH  066%=      5-min Rain = 0
KAM1 181212Z 18010KT 23/16 A2999 RMK A01 T02290162  RH  066%=      5-min Rain = 0
KAM1 181213Z 19009KT 23/16 A2999 RMK A01 T02290162  RH  066%=      5-min Rain = 0
KAM1 181214Z 18008KT 23/16 A2999 RMK A01 T02290162  RH  066%=      5-min Rain = 0
KAM1 181215Z 18010KT 23/16 A2999 RMK A01 T02290162  RH  066%=      5-min Rain = 0
KAM1 181216Z 19009KT 23/16 A2999 RMK A01 T02290162  RH  066%=      5-min Rain = 0
KAM1 181217Z 18009KT 23/16 A2999 RMK A01 T02290162  RH  066%=      5-min Rain = 0
KAM1 181218Z 18009KT 23/16 A2999 RMK A01 T02290162  RH  066%=      5-min Rain = 0
KAM1 181219Z 18010KT 23/16 A2999 RMK A01 T02280162  RH  066%=      5-min Rain = 0
KAM1 181220Z 18011KT 23/16 A2999 RMK A01 T02280162  RH  066%=      5-min Rain = 0
KAM1 181221Z 19011KT 23/16 A2999 RMK A01 T02280162  RH  066%=      5-min Rain = 0
KAM1 181222Z 19011KT 23/16 A2999 RMK A01 T02280162  RH  066%=      5-min Rain = 0
KAM1 181223Z 18009KT 23/16 A2999 RMK A01 T02290162  RH  066%=      5-min Rain = 0
KAM1 181224Z 18011G17KT 23/16 A2999 RMK A01 T02290162  RH  066%=      5-min Rain = 0
KAM1 181225Z 18010KT 23/16 A2999 RMK A01 T02280162  RH  066%=      5-min Rain = 0
KAM1 181226Z 18010KT 23/16 A2999 RMK A01 T02280162  RH  066%=      5-min Rain = 0
KAM1 181227Z 18011KT 23/16 A2999 RMK A01 T02280162  RH  066%=      5-min Rain = 0
KAM1 181228Z 18011KT 23/16 A2999 RMK A01 T02280162  RH  066%=      5-min Rain = 0
KAM1 181229Z 18010KT 23/16 A2999 RMK A01 T02290162  RH  066%=      5-min Rain = 0
KAM1 181230Z 18010KT 23/16 A2999 RMK A01 T02290162  RH  066%=      5-min Rain = 0
KAM1 181231Z 18012KT 23/16 A2999 RMK A01 T02290163  RH  066%=      5-min Rain = 0
KAM1 181232Z 18011KT 23/16 A2999 RMK A01 T02290162  RH  066%=      5-min Rain = 0
KAM1 181233Z 18012KT 23/16 A2999 RMK A01 T02290162  RH  066%=      5-min Rain = 0
KAM1 181234Z 18012KT 23/16 A2999 RMK A01 T02300162  RH  066%=      5-min Rain = 0
KAM1 181235Z 18009KT 23/16 A2999 RMK A01 T02300162  RH  066%=      5-min Rain = 0
KAM1 181236Z 18008KT 23/16 A2999 RMK A01 T02300163  RH  066%=      5-min Rain = 0
KAM1 181237Z 18008KT 23/16 A2999 RMK A01 T02300163  RH  066%=      5-min Rain = 0
KAM1 181238Z 18011KT 23/16 A2999 RMK A01 T02300163  RH  066%=      5-min Rain = 0
KAM1 181239Z 18012KT 23/16 A2999 RMK A01 T02300163  RH  066%=      5-min Rain = 0
KAM1 181240Z 18013KT 23/16 A2999 RMK A01 T02310163  RH  065%=      5-min Rain = 0
KAM1 181241Z 18012KT 23/16 A2999 RMK A01 T02330163  RH  065%=      5-min Rain = 0
KAM1 181242Z 17010G15KT 23/16 A2999 RMK A01 T02340163  RH  064%=      5-min Rain = 0
KAM1 181243Z 17012KT 23/16 A2999 RMK A01 T02340163  RH  064%=      5-min Rain = 0
KAM1 181244Z 17010KT 24/16 A2999 RMK A01 T02350163  RH  064%=      5-min Rain = 0
KAM1 181245Z 18013KT 24/16 A2999 RMK A01 T02350163  RH  064%=      5-min Rain = 0
KAM1 181246Z 17014KT 24/16 A2999 RMK A01 T02350163  RH  064%=      5-min Rain = 0
KAM1 181247Z 18012KT 24/16 A2999 RMK A01 T02360163  RH  063%=      5-min Rain = 0
KAM1 181248Z 18011KT 24/16 A2999 RMK A01 T02370163  RH  063%=      5-min Rain = 0
KAM1 181249Z 18011KT 24/16 A2999 RMK A01 T02370163  RH  063%=      5-min Rain = 0
KAM1 181250Z 18010KT 24/16 A2999 RMK A01 T02370164  RH  063%=      5-min Rain = 0
KAM1 181251Z 18012KT 24/16 A2999 RMK A01 T02380163  RH  063%=      5-min Rain = 0
KAM1 181252Z 18011KT 24/16 A2999 RMK A01 T02380163  RH  063%=      5-min Rain = 0
KAM1 181253Z 18012KT 24/16 A2999 RMK A01 T02380163  RH  063%=      5-min Rain = 0
KAM1 181254Z 18011KT 24/16 A2999 RMK A01 T02390163  RH  063%=      5-min Rain = 0
KAM1 181255Z 18011KT 24/16 A2999 RMK A01 T02390164  RH  062%=      5-min Rain = 0
KAM1 181256Z 19013KT 24/16 A2999 RMK A01 T02400164  RH  062%=      5-min Rain = 0
KAM1 181257Z 18012KT 24/16 A2999 RMK A01 T02400164  RH  062%=      5-min Rain = 0
KAM1 181258Z 17011G17KT 24/16 A2999 RMK A01 T02410164  RH  062%=      5-min Rain = 0
KAM1 181259Z 18014KT 24/16 A2999 RMK A01 T02410164  RH  062%=      5-min Rain = 0
KAM1 181300Z 18015KT 24/16 A2999 RMK A01 T02420163  RH  061%=      5-min Rain = 0
KAM1 181301Z 18012KT 24/16 A2999 RMK A01 T02420163  RH  061%=      5-min Rain = 0
KAM1 181302Z 19013KT 24/16 A2999 RMK A01 T02430164  RH  061%=      5-min Rain = 0
KAM1 181303Z 18013KT 24/16 A2999 RMK A01 T02430163  RH  061%=      5-min Rain = 0
KAM1 181304Z 19012KT 24/16 A2999 RMK A01 T02440164  RH  061%=      5-min Rain = 0
KAM1 181305Z 19012KT 24/16 A2999 RMK A01 T02440164  RH  061%=      5-min Rain = 0
KAM1 181306Z 18011KT 25/16 A2999 RMK A01 T02450164  RH  060%=      5-min Rain = 0
KAM1 181307Z 19012KT 25/16 A2999 RMK A01 T02460164  RH  060%=      5-min Rain = 0
KAM1 181308Z 18012KT 25/16 A2999 RMK A01 T02460164  RH  060%=      5-min Rain = 0
KAM1 181309Z 18014KT 25/16 A2999 RMK A01 T02470164  RH  060%=      5-min Rain = 0
KAM1 181310Z 19013KT 25/16 A2999 RMK A01 T02470163  RH  059%=      5-min Rain = 0
KAM1 181311Z 19010KT 25/16 A2999 RMK A01 T02480164  RH  059%=      5-min Rain = 0
KAM1 181312Z 20011KT 25/16 A2999 RMK A01 T02480164  RH  059%=      5-min Rain = 0
KAM1 181313Z 19010KT 25/16 A2999 RMK A01 T02490164  RH  059%=      5-min Rain = 0
KAM1 181314Z 18011KT 25/16 A2999 RMK A01 T02500164  RH  059%=      5-min Rain = 0
KAM1 181315Z 19010KT 25/16 A2999 RMK A01 T02500164  RH  059%=      5-min Rain = 0
KAM1 181316Z 19014G20KT 25/16 A2999 RMK A01 T02500163  RH  058%=      5-min Rain = 0
KAM1 181317Z 19016KT 25/16 A2999 RMK A01 T02510162  RH  058%=      5-min Rain = 0
KAM1 181318Z 19013KT 25/16 A2999 RMK A01 T02510162  RH  058%=      5-min Rain = 0
KAM1 181319Z 18011KT 25/16 A2999 RMK A01 T02510162  RH  058%=      5-min Rain = 0
KAM1 181320Z 18011KT 25/16 A2999 RMK A01 T02520164  RH  058%=      5-min Rain = 0
KAM1 181321Z 20013G18KT 25/16 A2999 RMK A01 T02530164  RH  058%=      5-min Rain = 0
KAM1 181322Z 19014KT 25/16 A2999 RMK A01 T02530162  RH  057%=      5-min Rain = 0
KAM1 181323Z 18011KT 25/16 A2999 RMK A01 T02530163  RH  057%=      5-min Rain = 0
KAM1 181324Z 19012G19KT 25/16 A2999 RMK A01 T02530164  RH  058%=      5-min Rain = 0
KAM1 181325Z 18014KT 25/16 A2999 RMK A01 T02530162  RH  057%=      5-min Rain = 0
KAM1 181326Z 19013G18KT 25/16 A2999 RMK A01 T02530162  RH  057%=      5-min Rain = 0
KAM1 181327Z 18010KT 25/16 A2999 RMK A01 T02530162  RH  057%=      5-min Rain = 0
KAM1 181328Z 18011KT 25/16 A2999 RMK A01 T02540163  RH  057%=      5-min Rain = 0
KAM1 181329Z 19012KT 26/16 A2999 RMK A01 T02550162  RH  056%=      5-min Rain = 0
KAM1 181330Z 19017KT 26/16 A2999 RMK A01 T02560162  RH  056%=      5-min Rain = 0
KAM1 181331Z 19015KT 26/16 A2999 RMK A01 T02560161  RH  056%=      5-min Rain = 0
KAM1 181332Z 18014KT 26/16 A2999 RMK A01 T02560161  RH  056%=      5-min Rain = 0
KAM1 181333Z 19016KT 26/16 A2999 RMK A01 T02560161  RH  056%=      5-min Rain = 0
KAM1 181334Z 19014KT 26/16 A30 RMK A01 T02560161  RH  056%=      5-min Rain = 0
KAM1 181335Z 19015KT 26/16 A30 RMK A01 T02560161  RH  056%=      5-min Rain = 0
KAM1 181336Z 19017KT 26/16 A30 RMK A01 T02560161  RH  056%=      5-min Rain = 0
KAM1 181337Z 19018KT 26/16 A30 RMK A01 T02560161  RH  056%=      5-min Rain = 0
KAM1 181338Z 20017KT 26/16 A30 RMK A01 T02560160  RH  055%=      5-min Rain = 0
KAM1 181339Z 20014KT 26/16 A30 RMK A01 T02560161  RH  056%=      5-min Rain = 0
KAM1 181340Z 19015KT 26/16 A30 RMK A01 T02570161  RH  056%=      5-min Rain = 0
KAM1 181341Z 19018KT 26/16 A30 RMK A01 T02570161  RH  055%=      5-min Rain = 0
KAM1 181342Z 19016KT 26/16 A2999 RMK A01 T02580160  RH  055%=      5-min Rain = 0
KAM1 181343Z 19014KT 26/16 A2999 RMK A01 T02570161  RH  055%=      5-min Rain = 0
KAM1 181344Z 19015KT 26/16 A2999 RMK A01 T02580162  RH  055%=      5-min Rain = 0
KAM1 181345Z 19017KT 26/16 A2999 RMK A01 T02580160  RH  055%=      5-min Rain = 0
KAM1 181346Z 19016G21KT 26/16 A2999 RMK A01 T02590161  RH  055%=      5-min Rain = 0
KAM1 181347Z 20014KT 26/16 A2999 RMK A01 T02590161  RH  055%=      5-min Rain = 0
KAM1 181348Z 19015G20KT 26/16 A2999 RMK A01 T02590161  RH  055%=      5-min Rain = 0
KAM1 181349Z 19016KT 26/16 A30 RMK A01 T02600161  RH  054%=      5-min Rain = 0
KAM1 181350Z 19014KT 26/16 A30 RMK A01 T02610161  RH  054%=      5-min Rain = 0
KAM1 181351Z 20014G20KT 26/16 A30 RMK A01 T02610161  RH  054%=      5-min Rain = 0
KAM1 181352Z 20016G22KT 26/16 A30 RMK A01 T02630162  RH  054%=      5-min Rain = 0
KAM1 181353Z 20016G23KT 26/16 A30 RMK A01 T02630160  RH  053%=      5-min Rain = 0
KAM1 181354Z 20016G21KT 26/16 A30 RMK A01 T02630162  RH  054%=      5-min Rain = 0
KAM1 181355Z 20017G23KT 26/16 A30 RMK A01 T02630160  RH  053%=      5-min Rain = 0
KAM1 181356Z 19017KT 26/16 A30 RMK A01 T02630161  RH  053%=      5-min Rain = 0
KAM1 181357Z 19015KT 26/16 A30 RMK A01 T02630162  RH  054%=      5-min Rain = 0
KAM1 181358Z 20012KT 26/16 A30 RMK A01 T02640162  RH  053%=      5-min Rain = 0
KAM1 181359Z 20013KT 27/16 A30 RMK A01 T02660163  RH  053%=      5-min Rain = 0
KAM1 181400Z 20014KT 27/16 A30 RMK A01 T02670162  RH  053%=      5-min Rain = 0
KAM1 181401Z 19014KT 27/16 A30 RMK A01 T02680163  RH  053%=      5-min Rain = 0
KAM1 181402Z 20017G22KT 27/16 A30 RMK A01 T02680162  RH  052%=      5-min Rain = 0
KAM1 181403Z 20014G20KT 27/16 A30 RMK A01 T02680161  RH  052%=      5-min Rain = 0
KAM1 181404Z 20013KT 27/16 A2999 RMK A01 T02680162  RH  052%=      5-min Rain = 0
KAM1 181405Z 19013KT 27/16 A2999 RMK A01 T02690163  RH  052%=      5-min Rain = 0
KAM1 181406Z 20013KT 27/16 A30 RMK A01 T02690163  RH  052%=      5-min Rain = 0
KAM1 181407Z 19013KT 27/16 A2999 RMK A01 T02700162  RH  052%=      5-min Rain = 0
KAM1 181408Z 20013KT 27/16 A30 RMK A01 T02700162  RH  052%=      5-min Rain = 0
KAM1 181409Z 19012KT 27/16 A30 RMK A01 T02690162  RH  052%=      5-min Rain = 0
KAM1 181410Z 19017KT 27/16 A2999 RMK A01 T02690161  RH  052%=      5-min Rain = 0
KAM1 181411Z 19017KT 27/16 A2999 RMK A01 T02670160  RH  052%=      5-min Rain = 0
KAM1 181412Z 19017KT 27/16 A2999 RMK A01 T02660158  RH  052%=      5-min Rain = 0
KAM1 181413Z 19016KT 27/16 A2999 RMK A01 T02650158  RH  052%=      5-min Rain = 0
KAM1 181414Z 20017KT 26/16 A2999 RMK A01 T02640158  RH  052%=      5-min Rain = 0
KAM1 181415Z 20018KT 26/16 A2999 RMK A01 T02630157  RH  052%=      5-min Rain = 0
KAM1 181416Z 20017KT 26/16 A2999 RMK A01 T02630157  RH  052%=      5-min Rain = 0
KAM1 181417Z 20017KT 26/16 A2999 RMK A01 T02620157  RH  052%=      5-min Rain = 0
KAM1 181418Z 19012KT 26/16 A2999 RMK A01 T02620158  RH  053%=      5-min Rain = 0
KAM1 181419Z 18016KT 26/16 A2999 RMK A01 T02620159  RH  053%=      5-min Rain = 0
KAM1 181420Z 19013KT 26/16 A2999 RMK A01 T02620158  RH  053%=      5-min Rain = 0
KAM1 181421Z 19016KT 26/16 A2999 RMK A01 T02620158  RH  053%=      5-min Rain = 0
KAM1 181422Z 20013KT 26/16 A2999 RMK A01 T02630159  RH  053%=      5-min Rain = 0
KAM1 181423Z 18016KT 27/16 A2999 RMK A01 T02650159  RH  052%=      5-min Rain = 0
KAM1 181424Z 19014KT 27/16 A2999 RMK A01 T02660159  RH  052%=      5-min Rain = 0
KAM1 181425Z 18015KT 27/16 A2999 RMK A01 T02680159  RH  051%=      5-min Rain = 0
KAM1 181426Z 18018KT 27/16 A2999 RMK A01 T02700157  RH  050%=      5-min Rain = 0
KAM1 181427Z 19018KT 27/16 A2999 RMK A01 T02700157  RH  050%=      5-min Rain = 0
KAM1 181428Z 20017KT 27/16 A2999 RMK A01 T02710158  RH  050%=      5-min Rain = 0
KAM1 181429Z 20016KT 27/16 A2999 RMK A01 T02710158  RH  050%=      5-min Rain = 0
KAM1 181430Z 20015KT 27/16 A2999 RMK A01 T02710158  RH  050%=      5-min Rain = 0
KAM1 181431Z 21014KT 27/16 A2999 RMK A01 T02710158  RH  050%=      5-min Rain = 0
KAM1 181432Z 20012KT 27/16 A2999 RMK A01 T02720158  RH  050%=      5-min Rain = 0
KAM1 181433Z 20016KT 27/16 A2999 RMK A01 T02730159  RH  050%=      5-min Rain = 0
KAM1 181434Z 20018KT 27/16 A2999 RMK A01 T02740157  RH  049%=      5-min Rain = 0
KAM1 181435Z 20020KT 27/16 A2999 RMK A01 T02720156  RH  049%=      5-min Rain = 0
KAM1 181436Z 20016G21KT 27/16 A2999 RMK A01 T02710155  RH  049%=      5-min Rain = 0
KAM1 181437Z 21019KT 27/16 A2999 RMK A01 T02710155  RH  049%=      5-min Rain = 0
KAM1 181438Z 21018KT 27/15 A2999 RMK A01 T02710154  RH  049%=      5-min Rain = 0
KAM1 181439Z 21017G22KT 27/16 A2999 RMK A01 T02720155  RH  049%=      5-min Rain = 0
KAM1 181440Z 20017KT 28/16 A2999 RMK A01 T02760157  RH  048%=      5-min Rain = 0
KAM1 181441Z 20019G24KT 28/16 A2999 RMK A01 T02780156  RH  048%=      5-min Rain = 0
KAM1 181442Z 20018KT 28/16 A2999 RMK A01 T02780155  RH  047%=      5-min Rain = 0
KAM1 181443Z 20017KT 28/16 A2999 RMK A01 T02770156  RH  047%=      5-min Rain = 0
KAM1 181444Z 20014KT 28/16 A2999 RMK A01 T02780156  RH  048%=      5-min Rain = 0
KAM1 181445Z 20016KT 28/16 A2999 RMK A01 T02790157  RH  047%=      5-min Rain = 0
KAM1 181446Z 20015KT 28/16 A2999 RMK A01 T02810157  RH  047%=      5-min Rain = 0
KAM1 181447Z 20016KT 28/16 A2999 RMK A01 T02820157  RH  046%=      5-min Rain = 0
KAM1 181448Z 19014KT 28/16 A2999 RMK A01 T02820157  RH  046%=      5-min Rain = 0
KAM1 181449Z 19016KT 28/16 A2999 RMK A01 T02820157  RH  046%=      5-min Rain = 0
KAM1 181450Z 19015KT 28/16 A2999 RMK A01 T02830157  RH  047%=      5-min Rain = 0
KAM1 181451Z 19013KT 28/16 A2999 RMK A01 T02840157  RH  046%=      5-min Rain = 0
KAM1 181452Z 19014KT 29/16 A2999 RMK A01 T02860159  RH  046%=      5-min Rain = 0
KAM1 181453Z 19016KT 29/16 A2999 RMK A01 T02870158  RH  046%=      5-min Rain = 0
KAM1 181454Z 19014KT 29/16 A2999 RMK A01 T02870157  RH  045%=      5-min Rain = 0
KAM1 181455Z 19015KT 29/16 A2999 RMK A01 T02880158  RH  046%=      5-min Rain = 0
KAM1 181456Z 20014KT 29/16 A2999 RMK A01 T02880157  RH  045%=      5-min Rain = 0
KAM1 181457Z 19013KT 29/16 A2999 RMK A01 T02870159  RH  046%=      5-min Rain = 0
KAM1 181458Z 20014KT 29/16 A2999 RMK A01 T02890158  RH  045%=      5-min Rain = 0
KAM1 181459Z 20014KT 29/16 A2999 RMK A01 T02900158  RH  045%=      5-min Rain = 0
KAM1 181500Z 19016KT 29/16 A2999 RMK A01 T02900158  RH  045%=      5-min Rain = 0
KAM1 181501Z 19013KT 29/16 A2999 RMK A01 T02900157  RH  045%=      5-min Rain = 0
KAM1 181502Z 20011G18KT 29/16 A2999 RMK A01 T02910159  RH  045%=      5-min Rain = 0
KAM1 181503Z 19015KT 29/16 A2999 RMK A01 T02920157  RH  044%=      5-min Rain = 0
KAM1 181504Z 19017KT 29/16 A2999 RMK A01 T02910156  RH  044%=      5-min Rain = 0
KAM1 181505Z 19016KT 29/16 A2999 RMK A01 T02900156  RH  044%=      5-min Rain = 0
KAM1 181506Z 19016KT 29/16 A2999 RMK A01 T02900155  RH  044%=      5-min Rain = 0
KAM1 181507Z 20012KT 29/16 A2999 RMK A01 T02890156  RH  044%=      5-min Rain = 0
KAM1 181508Z 21012G18KT 29/16 A2999 RMK A01 T02910157  RH  044%=      5-min Rain = 0
KAM1 181509Z 20015KT 29/16 A2999 RMK A01 T02930156  RH  043%=      5-min Rain = 0
KAM1 181510Z 20013G18KT 29/16 A2999 RMK A01 T02940156  RH  043%=      5-min Rain = 0
KAM1 181511Z 19016KT 29/16 A2999 RMK A01 T02930155  RH  043%=      5-min Rain = 0
KAM1 181512Z 20014KT 29/15 A2999 RMK A01 T02920154  RH  043%=      5-min Rain = 0
KAM1 181513Z 20011G16KT 29/16 A2999 RMK A01 T02910156  RH  044%=      5-min Rain = 0
KAM1 181514Z 20012KT 29/16 A2999 RMK A01 T02930158  RH  044%=      5-min Rain = 0
KAM1 181515Z 19016KT 30/16 A2999 RMK A01 T02950157  RH  043%=      5-min Rain = 0
KAM1 181516Z 19013KT 30/16 A2998 RMK A01 T02950156  RH  043%=      5-min Rain = 0
KAM1 181517Z 19014KT 30/15 A2999 RMK A01 T02950154  RH  042%=      5-min Rain = 0
KAM1 181518Z 20015KT 30/16 A2999 RMK A01 T02950155  RH  043%=      5-min Rain = 0
KAM1 181519Z 19013KT 30/16 A2999 RMK A01 T02950155  RH  043%=      5-min Rain = 0
KAM1 181520Z 21012KT 30/16 A2999 RMK A01 T02950155  RH  043%=      5-min Rain = 0
KAM1 181521Z 20012KT 30/16 A2999 RMK A01 T02970155  RH  042%=      5-min Rain = 0
KAM1 181522Z 21016KT 30/16 A2999 RMK A01 T03000156  RH  042%=      5-min Rain = 0
KAM1 181523Z 21016KT 30/15 A2999 RMK A01 T03000154  RH  041%=      5-min Rain = 0
KAM1 181524Z 20012G17KT 30/15 A2999 RMK A01 T02980152  RH  041%=      5-min Rain = 0
KAM1 181525Z 21015KT 30/15 A2999 RMK A01 T02970154  RH  042%=      5-min Rain = 0
KAM1 181526Z 20013KT 30/15 A2998 RMK A01 T02980153  RH  042%=      5-min Rain = 0
KAM1 181527Z 20013KT 30/16 A2999 RMK A01 T02990155  RH  042%=      5-min Rain = 0
KAM1 181528Z 20014KT 30/16 A2999 RMK A01 T03010155  RH  041%=      5-min Rain = 0
KAM1 181529Z 20014KT 30/15 A2998 RMK A01 T03000153  RH  041%=      5-min Rain = 0
KAM1 181530Z 20013KT 30/15 A2999 RMK A01 T02990154  RH  042%=      5-min Rain = 0
KAM1 181531Z 20013KT 30/16 A2999 RMK A01 T02980155  RH  042%=      5-min Rain = 0
KAM1 181532Z 21013KT 30/15 A2998 RMK A01 T02990154  RH  042%=      5-min Rain = 0
KAM1 181533Z 20012KT 30/16 A2999 RMK A01 T02990156  RH  042%=      5-min Rain = 0
KAM1 181534Z 20013KT 30/16 A2999 RMK A01 T03000156  RH  042%=      5-min Rain = 0
KAM1 181535Z 19012KT 30/16 A2998 RMK A01 T03010156  RH  041%=      5-min Rain = 0
KAM1 181536Z 20015KT 30/16 A2998 RMK A01 T03020155  RH  041%=      5-min Rain = 0
KAM1 181537Z 20012KT 30/16 A2998 RMK A01 T03030155  RH  041%=      5-min Rain = 0
KAM1 181538Z 20013KT 30/16 A2999 RMK A01 T03040157  RH  041%=      5-min Rain = 0
KAM1 181539Z 22012KT 31/16 A2999 RMK A01 T03050156  RH  041%=      5-min Rain = 0
KAM1 181540Z 23013KT 31/16 A2999 RMK A01 T03070156  RH  040%=      5-min Rain = 0
KAM1 181541Z 22014KT 31/16 A2998 RMK A01 T03070155  RH  040%=      5-min Rain = 0
KAM1 181542Z 22016KT 31/15 A2999 RMK A01 T03070154  RH  039%=      5-min Rain = 0
KAM1 181543Z 21015KT 31/15 A2998 RMK A01 T03060151  RH  039%=      5-min Rain = 0
KAM1 181544Z 20017KT 30/15 A2998 RMK A01 T03030152  RH  040%=      5-min Rain = 0
KAM1 181545Z 21016KT 30/15 A2999 RMK A01 T03030151  RH  040%=      5-min Rain = 0
KAM1 181546Z 20015KT 30/15 A2999 RMK A01 T03030151  RH  040%=      5-min Rain = 0
KAM1 181547Z 20015KT 30/15 A2998 RMK A01 T03020152  RH  040%=      5-min Rain = 0
KAM1 181548Z 21013G18KT 30/15 A2999 RMK A01 T03020153  RH  041%=      5-min Rain = 0
KAM1 181549Z 22013KT 30/16 A2999 RMK A01 T03040156  RH  041%=      5-min Rain = 0
KAM1 181550Z 22014KT 31/15 A2999 RMK A01 T03060153  RH  040%=      5-min Rain = 0
KAM1 181551Z 21013KT 31/15 A2999 RMK A01 T03050153  RH  040%=      5-min Rain = 0
KAM1 181552Z 21012KT 31/16 A2999 RMK A01 T03050155  RH  040%=      5-min Rain = 0
KAM1 181553Z 21011KT 31/15 A2999 RMK A01 T03060154  RH  040%=      5-min Rain = 0
KAM1 181554Z 21010KT 31/16 A2998 RMK A01 T03060155  RH  040%=      5-min Rain = 0
KAM1 181555Z 21014KT 31/16 A2999 RMK A01 T03080155  RH  040%=      5-min Rain = 0
KAM1 181556Z 21015KT 31/15 A2998 RMK A01 T03080153  RH  039%=      5-min Rain = 0
KAM1 181557Z 20013KT 31/15 A2999 RMK A01 T03070154  RH  039%=      5-min Rain = 0
KAM1 181558Z 21013KT 31/15 A2999 RMK A01 T03080154  RH  039%=      5-min Rain = 0
KAM1 181559Z 20013KT 31/16 A2998 RMK A01 T03090155  RH  039%=      5-min Rain = 0
KAM1 181600Z 20015KT 31/15 A2998 RMK A01 T03100154  RH  039%=      5-min Rain = 0
KAM1 181601Z 21013KT 31/16 A2998 RMK A01 T03110155  RH  039%=      5-min Rain = 0
KAM1 181602Z 21013KT 31/16 A2998 RMK A01 T03110155  RH  039%=      5-min Rain = 0
KAM1 181603Z 22012KT 31/16 A2998 RMK A01 T03090155  RH  039%=      5-min Rain = 0
KAM1 181604Z 21011KT 31/16 A2998 RMK A01 T03070155  RH  040%=      5-min Rain = 0
KAM1 181605Z 19010KT 31/16 A2998 RMK A01 T03070157  RH  040%=      5-min Rain = 0
KAM1 181606Z 20011KT 31/16 A2998 RMK A01 T03090157  RH  040%=      5-min Rain = 0
KAM1 181607Z 20011KT 31/16 A2998 RMK A01 T03110158  RH  040%=      5-min Rain = 0
KAM1 181608Z 21011KT 31/16 A2998 RMK A01 T03130159  RH  039%=      5-min Rain = 0
KAM1 181609Z 20012KT 32/16 A2998 RMK A01 T03170159  RH  039%=      5-min Rain = 0
KAM1 181610Z 20013KT 32/16 A2998 RMK A01 T03160156  RH  038%=      5-min Rain = 0
KAM1 181611Z 21015KT 31/16 A2998 RMK A01 T03130157  RH  039%=      5-min Rain = 0
KAM1 181612Z 21013KT 31/16 A2998 RMK A01 T03120157  RH  039%=      5-min Rain = 0
KAM1 181613Z 21014KT 31/16 A2998 RMK A01 T03120155  RH  039%=      5-min Rain = 0
KAM1 181614Z 21010KT 31/16 A2998 RMK A01 T03120157  RH  039%=      5-min Rain = 0
KAM1 181615Z 20013KT 31/16 A2998 RMK A01 T03140160  RH  039%=      5-min Rain = 0
KAM1 181616Z 20013KT 32/16 A2998 RMK A01 T03170158  RH  038%=      5-min Rain = 0
KAM1 181617Z 21013KT 32/16 A2998 RMK A01 T03170158  RH  038%=      5-min Rain = 0
KAM1 181618Z 22013KT 32/16 A2998 RMK A01 T03180157  RH  038%=      5-min Rain = 0
KAM1 181619Z 21011KT 32/16 A2998 RMK A01 T03190158  RH  038%=      5-min Rain = 0
KAM1 181620Z 21011KT 32/16 A2998 RMK A01 T03200159  RH  038%=      5-min Rain = 0
KAM1 181621Z 20011KT 32/16 A2998 RMK A01 T03210158  RH  038%=      5-min Rain = 0
KAM1 181622Z 19014G21KT 32/16 A2998 RMK A01 T03190159  RH  038%=      5-min Rain = 0
KAM1 181623Z 21015KT 32/16 A2998 RMK A01 T03200159  RH  038%=      5-min Rain = 0
KAM1 181624Z 21014KT 32/16 A2998 RMK A01 T03220156  RH  037%=      5-min Rain = 0
KAM1 181625Z 21012KT 32/16 A2998 RMK A01 T03200157  RH  038%=      5-min Rain = 0
KAM1 181626Z 21012KT 32/16 A2998 RMK A01 T03200156  RH  037%=      5-min Rain = 0
KAM1 181627Z 21015KT 32/16 A2998 RMK A01 T03200156  RH  037%=      5-min Rain = 0
KAM1 181628Z 20014KT 32/16 A2998 RMK A01 T03190157  RH  038%=      5-min Rain = 0
KAM1 181629Z 20013KT 32/16 A2998 RMK A01 T03190156  RH  038%=      5-min Rain = 0
KAM1 181630Z 20011KT 32/16 A2998 RMK A01 T03190157  RH  037%=      5-min Rain = 0
KAM1 181631Z 20013KT 32/16 A2998 RMK A01 T03200157  RH  038%=      5-min Rain = 0
KAM1 181632Z 21013KT 32/16 A2998 RMK A01 T03220158  RH  037%=      5-min Rain = 0
KAM1 181633Z 20012KT 32/16 A2998 RMK A01 T03240159  RH  037%=      5-min Rain = 0
KAM1 181634Z 21013KT 33/16 A2998 RMK A01 T03250157  RH  036%=      5-min Rain = 0
KAM1 181635Z 21014KT 33/16 A2998 RMK A01 T03270156  RH  036%=      5-min Rain = 0
KAM1 181636Z 20012KT 33/15 A2998 RMK A01 T03250154  RH  036%=      5-min Rain = 0
KAM1 181637Z 19010KT 32/16 A2998 RMK A01 T03240157  RH  037%=      5-min Rain = 0
KAM1 181638Z 19015KT 33/16 A2998 RMK A01 T03250157  RH  036%=      5-min Rain = 0
KAM1 181639Z 20013KT 33/16 A2998 RMK A01 T03250157  RH  036%=      5-min Rain = 0
KAM1 181640Z 21012KT 32/16 A2998 RMK A01 T03240159  RH  037%=      5-min Rain = 0
KAM1 181641Z 22011KT 33/16 A2998 RMK A01 T03270161  RH  037%=      5-min Rain = 0
KAM1 181642Z 22012KT 33/16 A2998 RMK A01 T03300159  RH  036%=      5-min Rain = 0
KAM1 181643Z 21011KT 33/16 A2997 RMK A01 T03290156  RH  035%=      5-min Rain = 0
KAM1 181644Z 21013KT 33/16 A2997 RMK A01 T03270157  RH  036%=      5-min Rain = 0
KAM1 181645Z 20012KT 33/16 A2997 RMK A01 T03260155  RH  036%=      5-min Rain = 0
KAM1 181646Z 20013KT 33/16 A2997 RMK A01 T03260156  RH  036%=      5-min Rain = 0
KAM1 181647Z 22013KT 33/15 A2997 RMK A01 T03270154  RH  035%=      5-min Rain = 0
KAM1 181648Z 20011KT 33/16 A2997 RMK A01 T03260155  RH  036%=      5-min Rain = 0
KAM1 181649Z 19012KT 33/16 A2997 RMK A01 T03260156  RH  036%=      5-min Rain = 0
KAM1 181650Z 21014KT 33/16 A2997 RMK A01 T03300158  RH  036%=      5-min Rain = 0
KAM1 181651Z 22012KT 33/16 A2997 RMK A01 T03320155  RH  035%=      5-min Rain = 0
KAM1 181652Z 22008KT 33/16 A2997 RMK A01 T03310156  RH  035%=      5-min Rain = 0
KAM1 181653Z 22009G15KT 33/16 A2997 RMK A01 T03310159  RH  036%=      5-min Rain = 0
KAM1 181654Z 20013KT 33/16 A2997 RMK A01 T03330157  RH  035%=      5-min Rain = 0
KAM1 181655Z 21012KT 33/16 A2997 RMK A01 T03330155  RH  034%=      5-min Rain = 0
KAM1 181656Z 20014KT 33/16 A2997 RMK A01 T03320155  RH  035%=      5-min Rain = 0
KAM1 181657Z 21013KT 33/16 A2997 RMK A01 T03320155  RH  035%=      5-min Rain = 0
KAM1 181658Z 20014KT 33/15 A2997 RMK A01 T03310153  RH  034%=      5-min Rain = 0
KAM1 181659Z 18012KT 33/16 A2997 RMK A01 T03310155  RH  035%=      5-min Rain = 0
KAM1 181700Z 19010KT 33/15 A2997 RMK A01 T03330154  RH  034%=      5-min Rain = 0
KAM1 181701Z 19010KT 34/16 A2997 RMK A01 T03360159  RH  035%=      5-min Rain = 0
KAM1 181702Z 20013KT 34/16 A2997 RMK A01 T03390157  RH  034%=      5-min Rain = 0
KAM1 181703Z 22011KT 34/16 A2997 RMK A01 T03370156  RH  034%=      5-min Rain = 0
KAM1 181704Z 21012KT 34/16 A2997 RMK A01 T03350156  RH  034%=      5-min Rain = 0
KAM1 181705Z 21011KT 34/16 A2997 RMK A01 T03350156  RH  034%=      5-min Rain = 0
KAM1 181706Z 22013KT 34/16 A2997 RMK A01 T03370155  RH  034%=      5-min Rain = 0
KAM1 181707Z 20014G19KT 34/15 A2997 RMK A01 T03350154  RH  034%=      5-min Rain = 0
KAM1 181708Z 21013KT 33/15 A2997 RMK A01 T03340154  RH  034%=      5-min Rain = 0
KAM1 181709Z 21012KT 34/16 A2997 RMK A01 T03370155  RH  033%=      5-min Rain = 0
KAM1 181710Z 19013KT 34/16 A2997 RMK A01 T03380155  RH  033%=      5-min Rain = 0
KAM1 181711Z 21010KT 34/15 A2997 RMK A01 T03390154  RH  033%=      5-min Rain = 0
KAM1 181712Z 20008KT 34/16 A2997 RMK A01 T03380155  RH  033%=      5-min Rain = 0
KAM1 181713Z 21013KT 34/16 A2997 RMK A01 T03410155  RH  033%=      5-min Rain = 0
KAM1 181714Z 21012KT 34/15 A2997 RMK A01 T03420151  RH  032%=      5-min Rain = 0
KAM1 181715Z 22010KT 34/15 A2997 RMK A01 T03400153  RH  033%=      5-min Rain = 0
KAM1 181716Z 22008KT 34/15 A2997 RMK A01 T03390152  RH  033%=      5-min Rain = 0
KAM1 181717Z 23011KT 34/15 A2997 RMK A01 T03390154  RH  033%=      5-min Rain = 0
KAM1 181718Z 20011KT 34/16 A2997 RMK A01 T03390155  RH  033%=      5-min Rain = 0
KAM1 181719Z 22009KT 34/16 A2997 RMK A01 T03420157  RH  033%=      5-min Rain = 0
KAM1 181720Z 22014KT 35/15 A2997 RMK A01 T03460154  RH  032%=      5-min Rain = 0
KAM1 181721Z 22012KT 34/15 A2997 RMK A01 T03440149  RH  031%=      5-min Rain = 0
KAM1 181722Z 23012KT 34/15 A2996 RMK A01 T03420150  RH  032%=      5-min Rain = 0
KAM1 181723Z 24010KT 34/15 A2996 RMK A01 T03400152  RH  032%=      5-min Rain = 0
KAM1 181724Z 23012G17KT 34/15 A2996 RMK A01 T03410154  RH  033%=      5-min Rain = 0
KAM1 181725Z 20011G17KT 34/15 A2996 RMK A01 T03430152  RH  032%=      5-min Rain = 0
KAM1 181726Z 20015KT 34/15 A2996 RMK A01 T03430152  RH  032%=      5-min Rain = 0
KAM1 181727Z 20015KT 34/15 A2996 RMK A01 T03430147  RH  031%=      5-min Rain = 0
KAM1 181728Z 20011KT 34/14 A2996 RMK A01 T03420143  RH  030%=      5-min Rain = 0
KAM1 181729Z 20010G16KT 34/15 A2996 RMK A01 T03410147  RH  031%=      5-min Rain = 0
KAM1 181730Z 20012KT 34/15 A2996 RMK A01 T03430150  RH  032%=      5-min Rain = 0
KAM1 181731Z 20011KT 35/15 A2996 RMK A01 T03450148  RH  031%=      5-min Rain = 0
KAM1 181732Z 20012KT 34/15 A2996 RMK A01 T03440149  RH  031%=      5-min Rain = 0
KAM1 181733Z 20011KT 34/15 A2996 RMK A01 T03430149  RH  031%=      5-min Rain = 0
KAM1 181734Z 19012KT 34/15 A2996 RMK A01 T03440149  RH  031%=      5-min Rain = 0
KAM1 181735Z 20012KT 35/15 A2996 RMK A01 T03460147  RH  030%=      5-min Rain = 0
KAM1 181736Z 20014KT 35/15 A2996 RMK A01 T03460148  RH  031%=      5-min Rain = 0
KAM1 181737Z 20012KT 35/15 A2996 RMK A01 T03460148  RH  030%=      5-min Rain = 0
KAM1 181738Z 20014KT 35/15 A2996 RMK A01 T03460148  RH  031%=      5-min Rain = 0
KAM1 181739Z 19012KT 35/15 A2996 RMK A01 T03460149  RH  031%=      5-min Rain = 0
KAM1 181740Z 19010KT 35/15 A2996 RMK A01 T03460150  RH  031%=      5-min Rain = 0
KAM1 181741Z 19012G17KT 35/15 A2996 RMK A01 T03470152  RH  031%=      5-min Rain = 0
KAM1 181742Z 19013KT 35/15 A2996 RMK A01 T03500151  RH  031%=      5-min Rain = 0
KAM1 181743Z 19014KT 35/15 A2996 RMK A01 T03500149  RH  030%=      5-min Rain = 0
KAM1 181744Z 18011KT 35/15 A2996 RMK A01 T03500150  RH  030%=      5-min Rain = 0
KAM1 181745Z 18011KT 35/15 A2996 RMK A01 T03510149  RH  030%=      5-min Rain = 0
KAM1 181746Z 20009KT 35/15 A2996 RMK A01 T03530154  RH  031%=      5-min Rain = 0
KAM1 181747Z 21012KT 36/15 A2996 RMK A01 T03550154  RH  030%=      5-min Rain = 0
KAM1 181748Z 21012KT 36/15 A2996 RMK A01 T03560152  RH  030%=      5-min Rain = 0
KAM1 181749Z 19012G17KT 35/15 A2996 RMK A01 T03540152  RH  030%=      5-min Rain = 0
KAM1 181750Z 19014KT 35/15 A2996 RMK A01 T03540147  RH  029%=      5-min Rain = 0
KAM1 181751Z 20016KT 35/15 A2996 RMK A01 T03520147  RH  029%=      5-min Rain = 0
KAM1 181752Z 21017KT 35/14 A2996 RMK A01 T03530144  RH  029%=      5-min Rain = 0
KAM1 181753Z 21013KT 35/14 A2996 RMK A01 T03510143  RH  029%=      5-min Rain = 0
KAM1 181754Z 20012KT 35/15 A2996 RMK A01 T03480146  RH  030%=      5-min Rain = 0
KAM1 181755Z 22011KT 35/15 A2995 RMK A01 T03490148  RH  030%=      5-min Rain = 0
KAM1 181756Z 22013KT 35/15 A2995 RMK A01 T03520153  RH  030%=      5-min Rain = 0
KAM1 181757Z 20015KT 36/15 A2995 RMK A01 T03560149  RH  029%=      5-min Rain = 0
KAM1 181758Z 20010KT 36/15 A2995 RMK A01 T03550152  RH  030%=      5-min Rain = 0
KAM1 181759Z 21010KT 36/16 A2995 RMK A01 T03590156  RH  030%=      5-min Rain = 0
KAM1 181800Z 19013KT 36/15 A2995 RMK A01 T03630153  RH  029%=      5-min Rain = 0
KAM1 181801Z 19014KT 36/15 A2995 RMK A01 T03630147  RH  028%=      5-min Rain = 0
KAM1 181802Z 19014KT 36/15 A2995 RMK A01 T03610148  RH  028%=      5-min Rain = 0
KAM1 181803Z 18016KT 36/15 A2995 RMK A01 T03610146  RH  028%=      5-min Rain = 0
KAM1 181804Z 18016KT 36/14 A2995 RMK A01 T03590144  RH  028%=      5-min Rain = 0
KAM1 181805Z 18014KT 36/14 A2995 RMK A01 T03560143  RH  028%=      5-min Rain = 0
KAM1 181806Z 19012KT 36/14 A2995 RMK A01 T03560144  RH  028%=      5-min Rain = 0
KAM1 181807Z 18012KT 36/14 A2995 RMK A01 T03580142  RH  028%=      5-min Rain = 0
KAM1 181808Z 20011KT 36/15 A2995 RMK A01 T03590146  RH  028%=      5-min Rain = 0
KAM1 181809Z 20012G18KT 36/15 A2995 RMK A01 T03610151  RH  029%=      5-min Rain = 0
KAM1 181810Z 20016KT 37/15 A2995 RMK A01 T03670146  RH  027%=      5-min Rain = 0
KAM1 181811Z 21013KT 37/14 A2995 RMK A01 T03650144  RH  027%=      5-min Rain = 0
KAM1 181812Z 21013KT 36/14 A2995 RMK A01 T03620144  RH  027%=      5-min Rain = 0
KAM1 181813Z 21014KT 36/15 A2995 RMK A01 T03610148  RH  028%=      5-min Rain = 0
KAM1 181814Z 20015KT 36/15 A2994 RMK A01 T03620148  RH  028%=      5-min Rain = 0
KAM1 181815Z 19015KT 36/14 A2994 RMK A01 T03620144  RH  027%=      5-min Rain = 0
KAM1 181816Z 19018KT 36/14 A2994 RMK A01 T03630139  RH  026%=      5-min Rain = 0
KAM1 181817Z 20014KT 36/14 A2994 RMK A01 T03600137  RH  026%=      5-min Rain = 0
KAM1 181818Z 18010KT 36/14 A2994 RMK A01 T03600144  RH  028%=      5-min Rain = 0
KAM1 181819Z 19013G18KT 37/15 A2994 RMK A01 T03650145  RH  027%=      5-min Rain = 0
KAM1 181820Z 20015G22KT 37/14 A2994 RMK A01 T03660142  RH  026%=      5-min Rain = 0
KAM1 181821Z 20017KT 37/14 A2994 RMK A01 T03660140  RH  026%=      5-min Rain = 0
KAM1 181822Z 21018KT 36/14 A2994 RMK A01 T03640135  RH  025%=      5-min Rain = 0
KAM1 181823Z 21015KT 36/14 A2994 RMK A01 T03620136  RH  026%=      5-min Rain = 0
KAM1 181824Z 19015KT 36/14 A2994 RMK A01 T03640136  RH  026%=      5-min Rain = 0
KAM1 181825Z 19012KT 36/14 A2994 RMK A01 T03630136  RH  026%=      5-min Rain = 0
KAM1 181826Z 19010KT 36/14 A2994 RMK A01 T03620139  RH  026%=      5-min Rain = 0
KAM1 181827Z 20013KT 37/14 A2994 RMK A01 T03650142  RH  027%=      5-min Rain = 0
KAM1 181828Z 19017KT 37/14 A2994 RMK A01 T03680140  RH  026%=      5-min Rain = 0
KAM1 181829Z 19015KT 37/14 A2994 RMK A01 T03660136  RH  025%=      5-min Rain = 0
KAM1 181830Z 19016KT 36/14 A2994 RMK A01 T03630136  RH  026%=      5-min Rain = 0
KAM1 181831Z 20014KT 36/14 A2994 RMK A01 T03630137  RH  026%=      5-min Rain = 0
KAM1 181832Z 19016KT 36/14 A2994 RMK A01 T03640137  RH  026%=      5-min Rain = 0
KAM1 181833Z 18014KT 37/14 A2994 RMK A01 T03660139  RH  026%=      5-min Rain = 0
KAM1 181834Z 19015KT 37/14 A2994 RMK A01 T03680138  RH  025%=      5-min Rain = 0
KAM1 181835Z 19016KT 37/14 A2994 RMK A01 T03680138  RH  025%=      5-min Rain = 0
KAM1 181836Z 20017KT 37/14 A2994 RMK A01 T03650139  RH  026%=      5-min Rain = 0
KAM1 181837Z 19016KT 36/14 A2994 RMK A01 T03620138  RH  026%=      5-min Rain = 0
KAM1 181838Z 19018KT 36/14 A2994 RMK A01 T03610140  RH  027%=      5-min Rain = 0
KAM1 181839Z 21013KT 36/14 A2994 RMK A01 T03610139  RH  027%=      5-min Rain = 0
KAM1 181840Z 20015KT 36/14 A2994 RMK A01 T03620143  RH  027%=      5-min Rain = 0
KAM1 181841Z 20016KT 37/15 A2994 RMK A01 T03650145  RH  027%=      5-min Rain = 0
KAM1 181842Z 20015KT 37/14 A2994 RMK A01 T03650143  RH  027%=      5-min Rain = 0
KAM1 181843Z 20012KT 36/15 A2994 RMK A01 T03640145  RH  027%=      5-min Rain = 0
KAM1 181844Z 20011KT 37/15 A2994 RMK A01 T03660148  RH  027%=      5-min Rain = 0
KAM1 181845Z 21013KT 37/14 A2994 RMK A01 T03680144  RH  026%=      5-min Rain = 0
KAM1 181846Z 19018G25KT 37/15 A2993 RMK A01 T03670146  RH  027%=      5-min Rain = 0
KAM1 181847Z 21014KT 37/15 A2994 RMK A01 T03670146  RH  027%=      5-min Rain = 0
KAM1 181848Z 21016KT 37/15 A2994 RMK A01 T03670149  RH  027%=      5-min Rain = 0
KAM1 181849Z 21017KT 37/15 A2994 RMK A01 T03670148  RH  027%=      5-min Rain = 0
KAM1 181850Z 20014KT 37/15 A2994 RMK A01 T03650148  RH  028%=      5-min Rain = 0
KAM1 181851Z 19012KT 37/15 A2994 RMK A01 T03650148  RH  027%=      5-min Rain = 0
KAM1 181852Z 18018KT 37/14 A2993 RMK A01 T03680141  RH  026%=      5-min Rain = 0
KAM1 181853Z 18018G23KT 37/14 A2993 RMK A01 T03660138  RH  026%=      5-min Rain = 0
KAM1 181854Z 18018KT 37/14 A2993 RMK A01 T03650142  RH  026%=      5-min Rain = 0
KAM1 181855Z 19013KT 37/15 A2994 RMK A01 T03670146  RH  027%=      5-min Rain = 0
KAM1 181856Z 19016KT 37/15 A2993 RMK A01 T03690145  RH  026%=      5-min Rain = 0
KAM1 181857Z 18013KT 37/14 A2994 RMK A01 T03700143  RH  026%=      5-min Rain = 0
KAM1 181858Z 18016G21KT 37/14 A2993 RMK A01 T03710143  RH  026%=      5-min Rain = 0
KAM1 181859Z 18017KT 37/14 A2993 RMK A01 T03690141  RH  026%=      5-min Rain = 0
KAM1 181900Z 18016KT 37/14 A2993 RMK A01 T03670144  RH  027%=      5-min Rain = 0
KAM1 181901Z 19019KT 37/15 A2993 RMK A01 T03670146  RH  027%=      5-min Rain = 0
KAM1 181902Z 19017KT 37/15 A2993 RMK A01 T03680145  RH  027%=      5-min Rain = 0
KAM1 181903Z 18017KT 37/14 A2993 RMK A01 T03670144  RH  027%=      5-min Rain = 0
KAM1 181904Z 18016KT 37/14 A2993 RMK A01 T03670140  RH  026%=      5-min Rain = 0
KAM1 181905Z 18016KT 37/14 A2993 RMK A01 T03660140  RH  026%=      5-min Rain = 0
KAM1 181906Z 18017KT 37/14 A2993 RMK A01 T03650141  RH  026%=      5-min Rain = 0
KAM1 181907Z 18014KT 37/14 A2993 RMK A01 T03660140  RH  026%=      5-min Rain = 0
KAM1 181908Z 18016KT 37/14 A2993 RMK A01 T03690142  RH  026%=      5-min Rain = 0
KAM1 181909Z 19015KT 37/14 A2993 RMK A01 T03730143  RH  026%=      5-min Rain = 0
KAM1 181910Z 20016G21KT 37/14 A2993 RMK A01 T03730141  RH  025%=      5-min Rain = 0
KAM1 181911Z 20015KT 37/14 A2993 RMK A01 T03680140  RH  026%=      5-min Rain = 0
KAM1 181912Z 20016KT 37/14 A2993 RMK A01 T03670142  RH  026%=      5-min Rain = 0
KAM1 181913Z 19014G19KT 37/14 A2993 RMK A01 T03690142  RH  026%=      5-min Rain = 0
KAM1 181914Z 21014G19KT 37/15 A2993 RMK A01 T03710145  RH  026%=      5-min Rain = 0
KAM1 181915Z 20015KT 38/15 A2993 RMK A01 T03750146  RH  026%=      5-min Rain = 0
KAM1 181916Z 20014KT 38/15 A2993 RMK A01 T03760147  RH  026%=      5-min Rain = 0
KAM1 181917Z 19016KT 38/15 A2993 RMK A01 T03770146  RH  026%=      5-min Rain = 0
KAM1 181918Z 18013G19KT 38/14 A2993 RMK A01 T03750144  RH  025%=      5-min Rain = 0
KAM1 181919Z 19014G19KT 38/14 A2993 RMK A01 T03750143  RH  025%=      5-min Rain = 0
KAM1 181920Z 18015KT 38/14 A2993 RMK A01 T03760141  RH  025%=      5-min Rain = 0
KAM1 181921Z 18017G22KT 38/14 A2993 RMK A01 T03760141  RH  025%=      5-min Rain = 0
KAM1 181922Z 18016KT 38/14 A2992 RMK A01 T03760140  RH  025%=      5-min Rain = 0
KAM1 181923Z 18012G17KT 38/14 A2993 RMK A01 T03750141  RH  025%=      5-min Rain = 0
KAM1 181924Z 17017KT 38/14 A2992 RMK A01 T03760138  RH  024%=      5-min Rain = 0
KAM1 181925Z 19017KT 38/14 A2993 RMK A01 T03750135  RH  024%=      5-min Rain = 0
KAM1 181926Z 20016G21KT 37/13 A2992 RMK A01 T03740133  RH  024%=      5-min Rain = 0
KAM1 181927Z 20016KT 37/14 A2993 RMK A01 T03710135  RH  024%=      5-min Rain = 0
KAM1 181928Z 20014KT 37/14 A2993 RMK A01 T03700139  RH  025%=      5-min Rain = 0
KAM1 181929Z 20015G20KT 37/14 A2992 RMK A01 T03720138  RH  025%=      5-min Rain = 0
KAM1 181930Z 20011G19KT 37/14 A2992 RMK A01 T03720139  RH  025%=      5-min Rain = 0
KAM1 181931Z 20017G22KT 37/14 A2992 RMK A01 T03740141  RH  025%=      5-min Rain = 0
KAM1 181932Z 20016KT 38/14 A2992 RMK A01 T03750140  RH  025%=      5-min Rain = 0
KAM1 181933Z 20012KT 37/14 A2992 RMK A01 T03740141  RH  025%=      5-min Rain = 0
KAM1 181934Z 20017G22KT 37/14 A2992 RMK A01 T03740139  RH  025%=      5-min Rain = 0
KAM1 181935Z 18016G21KT 37/14 A2992 RMK A01 T03740137  RH  024%=      5-min Rain = 0
KAM1 181936Z 18013KT 38/14 A2992 RMK A01 T03750137  RH  024%=      5-min Rain = 0
KAM1 181937Z 20014G21KT 38/14 A2992 RMK A01 T03760139  RH  024%=      5-min Rain = 0
KAM1 181938Z 19016KT 38/14 A2992 RMK A01 T03780137  RH  024%=      5-min Rain = 0
KAM1 181939Z 19012KT 38/13 A2992 RMK A01 T03770131  RH  023%=      5-min Rain = 0
KAM1 181940Z 19011KT 37/13 A2992 RMK A01 T03720134  RH  024%=      5-min Rain = 0
KAM1 181941Z 19016KT 37/14 A2992 RMK A01 T03730140  RH  025%=      5-min Rain = 0
KAM1 181942Z 19014KT 38/14 A2992 RMK A01 T03750140  RH  025%=      5-min Rain = 0
KAM1 181943Z 18016KT 38/14 A2992 RMK A01 T03760141  RH  025%=      5-min Rain = 0
KAM1 181944Z 17017KT 38/14 A2992 RMK A01 T03760137  RH  024%=      5-min Rain = 0
KAM1 181945Z 18014G21KT 38/14 A2992 RMK A01 T03760138  RH  024%=      5-min Rain = 0
KAM1 181946Z 19016KT 38/14 A2992 RMK A01 T03780136  RH  024%=      5-min Rain = 0
KAM1 181947Z 19012KT 38/14 A2992 RMK A01 T03780141  RH  025%=      5-min Rain = 0
KAM1 181948Z 18011G16KT 38/14 A2992 RMK A01 T03800143  RH  024%=      5-min Rain = 0
KAM1 181949Z 17013G19KT 38/14 A2992 RMK A01 T03830140  RH  024%=      5-min Rain = 0
KAM1 181950Z 17016KT 38/14 A2992 RMK A01 T03820136  RH  023%=      5-min Rain = 0
KAM1 181951Z 17015KT 38/14 A2992 RMK A01 T03790135  RH  023%=      5-min Rain = 0
KAM1 181952Z 18014KT 38/14 A2992 RMK A01 T03790137  RH  024%=      5-min Rain = 0
KAM1 181953Z 17015G22KT 38/14 A2991 RMK A01 T03810135  RH  023%=      5-min Rain = 0
KAM1 181954Z 17017G22KT 38/14 A2992 RMK A01 T03800135  RH  023%=      5-min Rain = 0
KAM1 181955Z 18014KT 38/13 A2992 RMK A01 T03790134  RH  023%=      5-min Rain = 0
KAM1 181956Z 18015KT 38/14 A2992 RMK A01 T03790138  RH  024%=      5-min Rain = 0
KAM1 181957Z 18015KT 38/13 A2992 RMK A01 T03800134  RH  023%=      5-min Rain = 0
KAM1 181958Z 18013KT 38/13 A2992 RMK A01 T03780133  RH  023%=      5-min Rain = 0
KAM1 181959Z 19015KT 38/13 A2992 RMK A01 T03760134  RH  024%=      5-min Rain = 0
KAM1 182000Z 18015G20KT 38/13 A2992 RMK A01 T03750134  RH  024%=      5-min Rain = 0
KAM1 182001Z 17016KT 38/13 A2991 RMK A01 T03770133  RH  023%=      5-min Rain = 0
KAM1 182002Z 19015KT 38/13 A2991 RMK A01 T03780131  RH  023%=      5-min Rain = 0
KAM1 182003Z 17016G21KT 38/13 A2991 RMK A01 T03780134  RH  024%=      5-min Rain = 0
KAM1 182004Z 17017G22KT 38/13 A2991 RMK A01 T03800134  RH  023%=      5-min Rain = 0
KAM1 182005Z 18017KT 38/13 A2991 RMK A01 T03790134  RH  023%=      5-min Rain = 0
KAM1 182006Z 19015KT 38/14 A2991 RMK A01 T03790136  RH  024%=      5-min Rain = 0
KAM1 182007Z 18016KT 38/14 A2991 RMK A01 T03800136  RH  024%=      5-min Rain = 0
KAM1 182008Z 19015KT 38/13 A2992 RMK A01 T03810131  RH  023%=      5-min Rain = 0
KAM1 182009Z 19015KT 38/13 A2991 RMK A01 T03790131  RH  023%=      5-min Rain = 0
KAM1 182010Z 19013KT 38/13 A2991 RMK A01 T03780130  RH  023%=      5-min Rain = 0
KAM1 182011Z 18015KT 38/13 A2991 RMK A01 T03760132  RH  023%=      5-min Rain = 0
KAM1 182012Z 18016KT 38/13 A2991 RMK A01 T03760133  RH  024%=      5-min Rain = 0
KAM1 182013Z 17015KT 38/13 A2991 RMK A01 T03770134  RH  024%=      5-min Rain = 0
KAM1 182014Z 18014KT 38/13 A2991 RMK A01 T03780131  RH  023%=      5-min Rain = 0
KAM1 182015Z 18014KT 38/13 A2991 RMK A01 T03770132  RH  023%=      5-min Rain = 0
KAM1 182016Z 19015KT 38/13 A2991 RMK A01 T03770133  RH  023%=      5-min Rain = 0
KAM1 182017Z 20015G21KT 38/13 A2991 RMK A01 T03770134  RH  024%=      5-min Rain = 0
KAM1 182018Z 21012KT 38/13 A2991 RMK A01 T03780134  RH  023%=      5-min Rain = 0
KAM1 182019Z 20016G21KT 38/13 A2991 RMK A01 T03790134  RH  023%=      5-min Rain = 0
KAM1 182020Z 19018G23KT 38/13 A2991 RMK A01 T03800133  RH  023%=      5-min Rain = 0
KAM1 182021Z 20017G24KT 38/13 A2991 RMK A01 T03800132  RH  023%=      5-min Rain = 0
KAM1 182022Z 19015KT 38/14 A2991 RMK A01 T03780136  RH  024%=      5-min Rain = 0
KAM1 182023Z 19013KT 38/14 A2991 RMK A01 T03810136  RH  023%=      5-min Rain = 0
KAM1 182024Z 19016KT 38/14 A2991 RMK A01 T03820136  RH  023%=      5-min Rain = 0
KAM1 182025Z 18016G22KT 38/13 A2991 RMK A01 T03820134  RH  023%=      5-min Rain = 0
KAM1 182026Z 18013KT 38/13 A2991 RMK A01 T03810134  RH  023%=      5-min Rain = 0
KAM1 182027Z 17014KT 38/13 A2991 RMK A01 T03810131  RH  023%=      5-min Rain = 0
KAM1 182028Z 20015G20KT 38/13 A2991 RMK A01 T03800134  RH  023%=      5-min Rain = 0
KAM1 182029Z 21016KT 38/13 A2991 RMK A01 T03830132  RH  023%=      5-min Rain = 0
KAM1 182030Z 21015KT 38/13 A2991 RMK A01 T03810131  RH  023%=      5-min Rain = 0
KAM1 182031Z 20016KT 38/13 A2991 RMK A01 T03820134  RH  023%=      5-min Rain = 0
KAM1 182032Z 19017KT 38/13 A2991 RMK A01 T03840128  RH  022%=      5-min Rain = 0
KAM1 182033Z 18015KT 38/13 A2991 RMK A01 T03820129  RH  022%=      5-min Rain = 0
KAM1 182034Z 19013G18KT 38/13 A2991 RMK A01 T03810127  RH  022%=      5-min Rain = 0
KAM1 182035Z 19015KT 38/13 A2991 RMK A01 T03800127  RH  022%=      5-min Rain = 0
KAM1 182036Z 19012KT 38/13 A2991 RMK A01 T03790127  RH  022%=      5-min Rain = 0
KAM1 182037Z 20011G19KT 38/13 A2991 RMK A01 T03780131  RH  023%=      5-min Rain = 0
KAM1 182038Z 19017KT 38/13 A2991 RMK A01 T03810134  RH  023%=      5-min Rain = 0
KAM1 182039Z 20014KT 38/13 A2991 RMK A01 T03830134  RH  023%=      5-min Rain = 0
KAM1 182040Z 19011G18KT 38/14 A2991 RMK A01 T03840138  RH  023%=      5-min Rain = 0
KAM1 182041Z 20017KT 39/14 A2991 RMK A01 T03870135  RH  023%=      5-min Rain = 0
KAM1 182042Z 20016KT 39/13 A2991 RMK A01 T03870133  RH  022%=      5-min Rain = 0
KAM1 182043Z 20017G22KT 39/13 A2991 RMK A01 T03850132  RH  022%=      5-min Rain = 0
KAM1 182044Z 21015KT 38/13 A2991 RMK A01 T03820130  RH  022%=      5-min Rain = 0
KAM1 182045Z 20016KT 38/13 A2991 RMK A01 T03810129  RH  022%=      5-min Rain = 0
KAM1 182046Z 20015KT 38/13 A2991 RMK A01 T03820129  RH  022%=      5-min Rain = 0
KAM1 182047Z 18015KT 38/13 A299 RMK A01 T03820130  RH  022%=      5-min Rain = 0
KAM1 182048Z 18014KT 38/13 A299 RMK A01 T03840133  RH  023%=      5-min Rain = 0
KAM1 182049Z 19013KT 38/13 A2991 RMK A01 T03840129  RH  022%=      5-min Rain = 0
KAM1 182050Z 19016G22KT 38/13 A2991 RMK A01 T03840132  RH  022%=      5-min Rain = 0
KAM1 182051Z 19015KT 39/13 A299 RMK A01 T03850130  RH  022%=      5-min Rain = 0
KAM1 182052Z 20015KT 39/13 A299 RMK A01 T03870129  RH  022%=      5-min Rain = 0
KAM1 182053Z 19014KT 38/13 A299 RMK A01 T03840127  RH  022%=      5-min Rain = 0
KAM1 182054Z 19015G23KT 38/13 A299 RMK A01 T03830131  RH  022%=      5-min Rain = 0
KAM1 182055Z 20021KT 38/13 A299 RMK A01 T03840128  RH  022%=      5-min Rain = 0
KAM1 182056Z 18014KT 38/13 A299 RMK A01 T03840130  RH  022%=      5-min Rain = 0
KAM1 182057Z 19012KT 39/13 A299 RMK A01 T03850132  RH  022%=      5-min Rain = 0
KAM1 182058Z 19015G21KT 39/13 A299 RMK A01 T03870132  RH  022%=      5-min Rain = 0
KAM1 182059Z 20016KT 39/13 A299 RMK A01 T03870128  RH  022%=      5-min Rain = 0
KAM1 182100Z 20014KT 38/13 A299 RMK A01 T03840128  RH  022%=      5-min Rain = 0
KAM1 182101Z 20014G20KT 38/13 A299 RMK A01 T03820128  RH  022%=      5-min Rain = 0
KAM1 182102Z 21014KT 38/13 A299 RMK A01 T03800129  RH  022%=      5-min Rain = 0
KAM1 182103Z 19011KT 38/13 A299 RMK A01 T03780129  RH  023%=      5-min Rain = 0
KAM1 182104Z 17014G19KT 38/13 A299 RMK A01 T03780132  RH  023%=      5-min Rain = 0
KAM1 182105Z 17019KT 38/13 A299 RMK A01 T03780128  RH  022%=      5-min Rain = 0
KAM1 182106Z 19017KT 38/13 A299 RMK A01 T03750128  RH  023%=      5-min Rain = 0
KAM1 182107Z 19015G20KT 37/13 A299 RMK A01 T03730125  RH  023%=      5-min Rain = 0
KAM1 182108Z 18016KT 37/13 A299 RMK A01 T03710125  RH  023%=      5-min Rain = 0
KAM1 182109Z 19015KT 37/13 A299 RMK A01 T03700126  RH  023%=      5-min Rain = 0
KAM1 182110Z 18013KT 37/13 A299 RMK A01 T03710130  RH  024%=      5-min Rain = 0
KAM1 182111Z 19017KT 38/13 A299 RMK A01 T03750129  RH  023%=      5-min Rain = 0
KAM1 182112Z 19018KT 38/13 A299 RMK A01 T03790130  RH  023%=      5-min Rain = 0
KAM1 182113Z 19022KT 38/13 A299 RMK A01 T03800129  RH  022%=      5-min Rain = 0
KAM1 182114Z 19019KT 38/13 A299 RMK A01 T03790128  RH  022%=      5-min Rain = 0
KAM1 182115Z 20014KT 38/13 A299 RMK A01 T03770128  RH  023%=      5-min Rain = 0
KAM1 182116Z 19009KT 38/13 A299 RMK A01 T03760129  RH  023%=      5-min Rain = 0
KAM1 182117Z 19009KT 38/13 A299 RMK A01 T03790133  RH  023%=      5-min Rain = 0
KAM1 182118Z 20013KT 38/13 A299 RMK A01 T03840134  RH  023%=      5-min Rain = 0
KAM1 182119Z 20013KT 39/13 A299 RMK A01 T03850132  RH  022%=      5-min Rain = 0
KAM1 182120Z 20013KT 39/13 A299 RMK A01 T03850132  RH  022%=      5-min Rain = 0
KAM1 182121Z 20018KT 39/13 A2989 RMK A01 T03850131  RH  022%=      5-min Rain = 0
KAM1 182122Z 20019KT 38/13 A299 RMK A01 T03830128  RH  022%=      5-min Rain = 0
KAM1 182123Z 19015KT 38/13 A299 RMK A01 T03810126  RH  022%=      5-min Rain = 0
KAM1 182124Z 19011KT 38/13 A299 RMK A01 T03820130  RH  022%=      5-min Rain = 0
KAM1 182125Z 19015KT 39/13 A2989 RMK A01 T03860130  RH  022%=      5-min Rain = 0
KAM1 182126Z 19016KT 39/13 A2989 RMK A01 T03860128  RH  022%=      5-min Rain = 0
KAM1 182127Z 19018KT 39/13 A2989 RMK A01 T03850132  RH  022%=      5-min Rain = 0
KAM1 182128Z 18018KT 39/13 A2989 RMK A01 T03850133  RH  022%=      5-min Rain = 0
KAM1 182129Z 19017KT 39/13 A2989 RMK A01 T03850133  RH  023%=      5-min Rain = 0
KAM1 182130Z 18016KT 38/13 A2989 RMK A01 T03840131  RH  022%=      5-min Rain = 0
KAM1 182131Z 19016KT 38/13 A2989 RMK A01 T03810131  RH  023%=      5-min Rain = 0
KAM1 182132Z 18015KT 38/13 A2989 RMK A01 T03800132  RH  023%=      5-min Rain = 0
KAM1 182133Z 18014KT 38/13 A2989 RMK A01 T03790134  RH  023%=      5-min Rain = 0
KAM1 182134Z 18013KT 38/14 A2989 RMK A01 T03810136  RH  023%=      5-min Rain = 0
KAM1 182135Z 18014KT 38/14 A2989 RMK A01 T03830137  RH  023%=      5-min Rain = 0
KAM1 182136Z 17015G21KT 38/14 A2989 RMK A01 T03840138  RH  023%=      5-min Rain = 0
KAM1 182137Z 18016KT 38/13 A2989 RMK A01 T03840134  RH  023%=      5-min Rain = 0
KAM1 182138Z 18015KT 38/14 A2989 RMK A01 T03830137  RH  023%=      5-min Rain = 0
KAM1 182139Z 20015KT 39/14 A2989 RMK A01 T03850138  RH  023%=      5-min Rain = 0
KAM1 182140Z 19012KT 39/13 A2989 RMK A01 T03870133  RH  022%=      5-min Rain = 0
KAM1 182141Z 19013KT 39/13 A2989 RMK A01 T03850132  RH  022%=      5-min Rain = 0
KAM1 182142Z 18015KT 38/13 A2989 RMK A01 T03840132  RH  022%=      5-min Rain = 0
KAM1 182143Z 17019KT 38/13 A2989 RMK A01 T03840128  RH  022%=      5-min Rain = 0
KAM1 182144Z 18021KT 38/13 A2989 RMK A01 T03840127  RH  022%=      5-min Rain = 0
KAM1 182145Z 19017G22KT 38/13 A2989 RMK A01 T03830126  RH  022%=      5-min Rain = 0
KAM1 182146Z 19016KT 38/13 A2989 RMK A01 T03830126  RH  022%=      5-min Rain = 0
KAM1 182147Z 18015KT 38/13 A2989 RMK A01 T03820126  RH  022%=      5-min Rain = 0
KAM1 182148Z 19013KT 38/13 A2989 RMK A01 T03820131  RH  022%=      5-min Rain = 0
KAM1 182149Z 20013KT 39/13 A2989 RMK A01 T03860132  RH  022%=      5-min Rain = 0
KAM1 182150Z 18016KT 39/13 A2989 RMK A01 T03860133  RH  022%=      5-min Rain = 0
KAM1 182151Z 18015KT 39/13 A2989 RMK A01 T03850134  RH  023%=      5-min Rain = 0
KAM1 182152Z 18018G23KT 38/13 A2989 RMK A01 T03840133  RH  023%=      5-min Rain = 0
KAM1 182153Z 17017KT 38/13 A2989 RMK A01 T03820132  RH  023%=      5-min Rain = 0
KAM1 182154Z 18014KT 38/14 A2989 RMK A01 T03810135  RH  023%=      5-min Rain = 0
KAM1 182155Z 19015KT 38/14 A2989 RMK A01 T03820136  RH  023%=      5-min Rain = 0
KAM1 182156Z 19013G19KT 38/13 A2989 RMK A01 T03840133  RH  023%=      5-min Rain = 0
KAM1 182157Z 18016KT 38/13 A2989 RMK A01 T03840132  RH  022%=      5-min Rain = 0
KAM1 182158Z 19014G19KT 39/13 A2989 RMK A01 T03850132  RH  022%=      5-min Rain = 0
KAM1 182159Z 19013G18KT 39/13 A2989 RMK A01 T03860132  RH  022%=      5-min Rain = 0
KAM1 182200Z 18016KT 39/13 A2989 RMK A01 T03870133  RH  022%=      5-min Rain = 0
KAM1 182201Z 19015KT 39/13 A2989 RMK A01 T03860128  RH  021%=      5-min Rain = 0
KAM1 182202Z 19013KT 38/13 A2989 RMK A01 T03830126  RH  022%=      5-min Rain = 0
KAM1 182203Z 19015KT 38/13 A2989 RMK A01 T03820126  RH  022%=      5-min Rain = 0
KAM1 182204Z 20013G18KT 38/13 A2989 RMK A01 T03820130  RH  022%=      5-min Rain = 0
KAM1 182205Z 21015KT 38/13 A2988 RMK A01 T03820133  RH  023%=      5-min Rain = 0
KAM1 182206Z 19014KT 38/14 A2989 RMK A01 T03830137  RH  023%=      5-min Rain = 0
KAM1 182207Z 20015KT 38/14 A2989 RMK A01 T03840137  RH  023%=      5-min Rain = 0
KAM1 182208Z 20013KT 39/14 A2989 RMK A01 T03850136  RH  023%=      5-min Rain = 0
KAM1 182209Z 21012KT 39/13 A2989 RMK A01 T03860134  RH  022%=      5-min Rain = 0
KAM1 182210Z 20014G19KT 39/13 A2989 RMK A01 T03850134  RH  022%=      5-min Rain = 0
KAM1 182211Z 20016KT 39/13 A2988 RMK A01 T03850128  RH  022%=      5-min Rain = 0
KAM1 182212Z 18014KT 38/13 A2989 RMK A01 T03830127  RH  022%=      5-min Rain = 0
KAM1 182213Z 19017KT 38/13 A2988 RMK A01 T03820125  RH  022%=      5-min Rain = 0
KAM1 182214Z 20016KT 38/13 A2988 RMK A01 T03810129  RH  022%=      5-min Rain = 0
KAM1 182215Z 18016KT 38/13 A2988 RMK A01 T03820130  RH  022%=      5-min Rain = 0
KAM1 182216Z 18016G22KT 38/13 A2988 RMK A01 T03830129  RH  022%=      5-min Rain = 0
KAM1 182217Z 18014KT 38/13 A2988 RMK A01 T03830128  RH  022%=      5-min Rain = 0
KAM1 182218Z 17014KT 38/13 A2988 RMK A01 T03810128  RH  022%=      5-min Rain = 0
KAM1 182219Z 18012KT 38/13 A2988 RMK A01 T03780128  RH  023%=      5-min Rain = 0
KAM1 182220Z 18010KT 38/13 A2988 RMK A01 T03780131  RH  023%=      5-min Rain = 0
KAM1 182221Z 19012KT 38/13 A2988 RMK A01 T03800131  RH  023%=      5-min Rain = 0
KAM1 182222Z 18017G22KT 38/13 A2988 RMK A01 T03810131  RH  023%=      5-min Rain = 0
KAM1 182223Z 17017KT 38/13 A2988 RMK A01 T03820130  RH  022%=      5-min Rain = 0
KAM1 182224Z 18015G20KT 38/13 A2988 RMK A01 T03820130  RH  022%=      5-min Rain = 0
KAM1 182225Z 18017G22KT 38/13 A2988 RMK A01 T03800130  RH  023%=      5-min Rain = 0
KAM1 182226Z 19013G18KT 38/13 A2988 RMK A01 T03810131  RH  023%=      5-min Rain = 0
KAM1 182227Z 21014KT 38/13 A2988 RMK A01 T03810134  RH  023%=      5-min Rain = 0
KAM1 182228Z 20014G19KT 38/14 A2988 RMK A01 T03830137  RH  023%=      5-min Rain = 0
KAM1 182229Z 19016KT 38/14 A2988 RMK A01 T03840136  RH  023%=      5-min Rain = 0
KAM1 182230Z 20016KT 38/13 A2988 RMK A01 T03830134  RH  023%=      5-min Rain = 0
KAM1 182231Z 21015KT 38/13 A2988 RMK A01 T03810134  RH  023%=      5-min Rain = 0
KAM1 182232Z 21016KT 38/13 A2987 RMK A01 T03800133  RH  023%=      5-min Rain = 0
KAM1 182233Z 20009KT 38/14 A2988 RMK A01 T03800135  RH  023%=      5-min Rain = 0
KAM1 182234Z 20011G17KT 38/14 A2987 RMK A01 T03820137  RH  023%=      5-min Rain = 0
KAM1 182235Z 20016KT 39/13 A2987 RMK A01 T03850134  RH  023%=      5-min Rain = 0
KAM1 182236Z 20018KT 38/13 A2987 RMK A01 T03840133  RH  023%=      5-min Rain = 0
KAM1 182237Z 19017KT 38/13 A2987 RMK A01 T03830132  RH  023%=      5-min Rain = 0
KAM1 182238Z 19017KT 38/13 A2987 RMK A01 T03820132  RH  023%=      5-min Rain = 0
KAM1 182239Z 18015KT 38/13 A2987 RMK A01 T03820134  RH  023%=      5-min Rain = 0
KAM1 182240Z 18013KT 38/14 A2987 RMK A01 T03810135  RH  023%=      5-min Rain = 0
KAM1 182241Z 19013KT 38/14 A2987 RMK A01 T03810135  RH  023%=      5-min Rain = 0
KAM1 182242Z 19013KT 38/14 A2987 RMK A01 T03810135  RH  023%=      5-min Rain = 0
KAM1 182243Z 20011KT 38/14 A2987 RMK A01 T03810136  RH  023%=      5-min Rain = 0
KAM1 182244Z 20014G21KT 38/14 A2987 RMK A01 T03810138  RH  024%=      5-min Rain = 0
KAM1 182245Z 20018KT 38/13 A2987 RMK A01 T03820131  RH  022%=      5-min Rain = 0
KAM1 182246Z 19016KT 38/13 A2987 RMK A01 T03790132  RH  023%=      5-min Rain = 0
KAM1 182247Z 19014KT 38/13 A2987 RMK A01 T03790132  RH  023%=      5-min Rain = 0
KAM1 182248Z 18014KT 38/13 A2987 RMK A01 T03780134  RH  023%=      5-min Rain = 0
KAM1 182249Z 18014KT 38/13 A2987 RMK A01 T03790133  RH  023%=      5-min Rain = 0
KAM1 182250Z 17013KT 38/14 A2987 RMK A01 T03790135  RH  024%=      5-min Rain = 0
KAM1 182251Z 18017KT 38/14 A2987 RMK A01 T03800136  RH  023%=      5-min Rain = 0
KAM1 182252Z 18014KT 38/14 A2987 RMK A01 T03810136  RH  023%=      5-min Rain = 0
KAM1 182253Z 18016KT 38/14 A2987 RMK A01 T03810135  RH  023%=      5-min Rain = 0
KAM1 182254Z 18013KT 38/14 A2987 RMK A01 T03800135  RH  023%=      5-min Rain = 0
KAM1 182255Z 19012KT 38/14 A2987 RMK A01 T03800136  RH  024%=      5-min Rain = 0
KAM1 182256Z 18014KT 38/14 A2987 RMK A01 T03800137  RH  024%=      5-min Rain = 0
KAM1 182257Z 18015G21KT 38/14 A2987 RMK A01 T03810137  RH  023%=      5-min Rain = 0
KAM1 182258Z 18015KT 38/13 A2987 RMK A01 T03800134  RH  023%=      5-min Rain = 0
KAM1 182259Z 17017KT 38/13 A2987 RMK A01 T03790134  RH  023%=      5-min Rain = 0
KAM1 182300Z 19015KT 38/14 A2987 RMK A01 T03800135  RH  023%=      5-min Rain = 0
KAM1 182301Z 21016G21KT 38/13 A2987 RMK A01 T03810134  RH  023%=      5-min Rain = 0
KAM1 182302Z 21011G16KT 38/14 A2987 RMK A01 T03810135  RH  023%=      5-min Rain = 0
KAM1 182303Z 19013KT 38/14 A2987 RMK A01 T03810135  RH  023%=      5-min Rain = 0
KAM1 182304Z 19014KT 38/13 A2987 RMK A01 T03810132  RH  023%=      5-min Rain = 0
KAM1 182305Z 19015KT 38/13 A2987 RMK A01 T03810134  RH  023%=      5-min Rain = 0
KAM1 182306Z 20012G17KT 38/13 A2987 RMK A01 T03800133  RH  023%=      5-min Rain = 0
KAM1 182307Z 20017KT 38/13 A2986 RMK A01 T03790131  RH  023%=      5-min Rain = 0
KAM1 182308Z 19014KT 38/13 A2987 RMK A01 T03780134  RH  023%=      5-min Rain = 0
KAM1 182309Z 18015KT 38/13 A2987 RMK A01 T03780133  RH  023%=      5-min Rain = 0
KAM1 182310Z 18014G19KT 38/13 A2987 RMK A01 T03780132  RH  023%=      5-min Rain = 0
KAM1 182311Z 18014G20KT 38/13 A2986 RMK A01 T03780133  RH  023%=      5-min Rain = 0
KAM1 182312Z 20018KT 38/13 A2986 RMK A01 T03770133  RH  023%=      5-min Rain = 0
KAM1 182313Z 20017KT 38/13 A2986 RMK A01 T03760133  RH  024%=      5-min Rain = 0
KAM1 182314Z 19016KT 38/13 A2986 RMK A01 T03750133  RH  024%=      5-min Rain = 0
KAM1 182315Z 19013KT 38/13 A2986 RMK A01 T03750134  RH  024%=      5-min Rain = 0
KAM1 182316Z 18016KT 38/13 A2986 RMK A01 T03760134  RH  024%=      5-min Rain = 0
KAM1 182317Z 18015KT 38/14 A2986 RMK A01 T03760135  RH  024%=      5-min Rain = 0
KAM1 182318Z 17015KT 38/14 A2986 RMK A01 T03760135  RH  024%=      5-min Rain = 0
KAM1 182319Z 17018KT 38/13 A2986 RMK A01 T03760134  RH  024%=      5-min Rain = 0
KAM1 182320Z 17013KT 38/13 A2986 RMK A01 T03750134  RH  024%=      5-min Rain = 0
KAM1 182321Z 17014KT 38/13 A2986 RMK A01 T03750134  RH  024%=      5-min Rain = 0
KAM1 182322Z 17013KT 38/14 A2986 RMK A01 T03750136  RH  024%=      5-min Rain = 0
KAM1 182323Z 17016KT 38/13 A2986 RMK A01 T03760133  RH  024%=      5-min Rain = 0
KAM1 182324Z 17017KT 38/13 A2986 RMK A01 T03760132  RH  023%=      5-min Rain = 0
KAM1 182325Z 19014KT 37/13 A2986 RMK A01 T03740133  RH  024%=      5-min Rain = 0
KAM1 182326Z 20015KT 37/13 A2986 RMK A01 T03740132  RH  024%=      5-min Rain = 0
KAM1 182327Z 19012KT 37/13 A2986 RMK A01 T03740132  RH  024%=      5-min Rain = 0
KAM1 182328Z 19014KT 37/13 A2986 RMK A01 T03740134  RH  024%=      5-min Rain = 0
KAM1 182329Z 18015KT 37/13 A2986 RMK A01 T03740132  RH  024%=      5-min Rain = 0
KAM1 182330Z 18012G17KT 37/13 A2986 RMK A01 T03740131  RH  024%=      5-min Rain = 0
KAM1 182331Z 18014KT 37/13 A2986 RMK A01 T03740130  RH  023%=      5-min Rain = 0
KAM1 182332Z 19014G19KT 37/13 A2986 RMK A01 T03740132  RH  024%=      5-min Rain = 0
KAM1 182333Z 20018KT 37/13 A2986 RMK A01 T03740130  RH  023%=      5-min Rain = 0
KAM1 182334Z 19016KT 37/13 A2986 RMK A01 T03740129  RH  023%=      5-min Rain = 0
KAM1 182335Z 20016KT 37/13 A2986 RMK A01 T03730130  RH  023%=      5-min Rain = 0
KAM1 182336Z 19016KT 37/13 A2986 RMK A01 T03730129  RH  023%=      5-min Rain = 0
KAM1 182337Z 19019G24KT 37/13 A2986 RMK A01 T03730129  RH  023%=      5-min Rain = 0
KAM1 182338Z 19015KT 37/13 A2986 RMK A01 T03730129  RH  023%=      5-min Rain = 0
KAM1 182339Z 19014KT 37/13 A2986 RMK A01 T03740131  RH  023%=      5-min Rain = 0
KAM1 182340Z 19016G22KT 38/13 A2986 RMK A01 T03750128  RH  023%=      5-min Rain = 0
KAM1 182341Z 19017KT 38/13 A2986 RMK A01 T03750128  RH  023%=      5-min Rain = 0
KAM1 182342Z 19016KT 38/13 A2986 RMK A01 T03750126  RH  023%=      5-min Rain = 0
KAM1 182343Z 19012KT 37/13 A2986 RMK A01 T03740128  RH  023%=      5-min Rain = 0
KAM1 182344Z 19013KT 38/13 A2986 RMK A01 T03750130  RH  023%=      5-min Rain = 0
KAM1 182345Z 19014G19KT 38/13 A2986 RMK A01 T03750131  RH  023%=      5-min Rain = 0
KAM1 182346Z 18014KT 38/13 A2986 RMK A01 T03760129  RH  023%=      5-min Rain = 0
KAM1 182347Z 19016KT 38/13 A2986 RMK A01 T03750128  RH  023%=      5-min Rain = 0
KAM1 182348Z 20015KT 37/13 A2986 RMK A01 T03740128  RH  023%=      5-min Rain = 0
KAM1 182349Z 20014KT 37/13 A2986 RMK A01 T03740126  RH  023%=      5-min Rain = 0
KAM1 182350Z 20011KT 37/13 A2986 RMK A01 T03730128  RH  023%=      5-min Rain = 0
KAM1 182351Z 19011KT 37/13 A2986 RMK A01 T03730131  RH  023%=      5-min Rain = 0
KAM1 182352Z 18014KT 37/13 A2986 RMK A01 T03740129  RH  023%=      5-min Rain = 0
KAM1 182353Z 18015KT 37/13 A2986 RMK A01 T03740128  RH  023%=      5-min Rain = 0
KAM1 182354Z 19016KT 37/13 A2986 RMK A01 T03730129  RH  023%=      5-min Rain = 0
KAM1 182355Z 20016KT 37/13 A2986 RMK A01 T03730128  RH  023%=      5-min Rain = 0
KAM1 182356Z 20016KT 37/13 A2986 RMK A01 T03720126  RH  023%=      5-min Rain = 0
KAM1 182357Z 20015KT 37/13 A2986 RMK A01 T03710126  RH  023%=      5-min Rain = 0
KAM1 182358Z 21016KT 37/13 A2986 RMK A01 T03710125  RH  023%=      5-min Rain = 0
KAM1 182359Z 20011KT 37/13 A2986 RMK A01 T03710127  RH  023%=      5-min Rain = 0
KAM1 190000Z 20011G16KT 37/13 A2986 RMK A01 T03710127  RH  023%=      5-min Rain = 0
KAM1 190001Z 19010KT 37/13 A2986 RMK A01 T03710129  RH  024%=      5-min Rain = 0
KAM1 190002Z 19011KT 37/13 A2986 RMK A01 T03710127  RH  023%=      5-min Rain = 0
KAM1 190003Z 20012KT 37/13 A2986 RMK A01 T03710130  RH  024%=      5-min Rain = 0
KAM1 190004Z 19014G20KT 37/13 A2986 RMK A01 T03720130  RH  024%=      5-min Rain = 0
KAM1 190005Z 19015KT 37/13 A2986 RMK A01 T03710129  RH  023%=      5-min Rain = 0
KAM1 190006Z 20014KT 37/13 A2986 RMK A01 T03710130  RH  024%=      5-min Rain = 0
KAM1 190007Z 20014KT 37/13 A2986 RMK A01 T03710130  RH  024%=      5-min Rain = 0
KAM1 190008Z 20014KT 37/13 A2986 RMK A01 T03700130  RH  024%=      5-min Rain = 0
KAM1 190009Z 20012KT 37/13 A2986 RMK A01 T03690131  RH  024%=      5-min Rain = 0
KAM1 190010Z 20014G19KT 37/13 A2986 RMK A01 T03680131  RH  024%=      5-min Rain = 0
KAM1 190011Z 20015KT 37/13 A2986 RMK A01 T03670130  RH  024%=      5-min Rain = 0
KAM1 190012Z 19015KT 37/13 A2986 RMK A01 T03670129  RH  024%=      5-min Rain = 0
KAM1 190013Z 19012G19KT 37/13 A2986 RMK A01 T03670130  RH  024%=      5-min Rain = 0
KAM1 190014Z 18016KT 37/13 A2986 RMK A01 T03670128  RH  024%=      5-min Rain = 0
KAM1 190015Z 18017KT 37/13 A2986 RMK A01 T03670127  RH  024%=      5-min Rain = 0
KAM1 190016Z 18018KT 37/13 A2986 RMK A01 T03670127  RH  024%=      5-min Rain = 0
KAM1 190017Z 17014KT 37/13 A2986 RMK A01 T03670128  RH  024%=      5-min Rain = 0
KAM1 190018Z 17016KT 37/13 A2986 RMK A01 T03670129  RH  024%=      5-min Rain = 0
KAM1 190019Z 18014KT 37/13 A2986 RMK A01 T03670129  RH  024%=      5-min Rain = 0
KAM1 190020Z 18016KT 37/13 A2986 RMK A01 T03670130  RH  024%=      5-min Rain = 0
KAM1 190021Z 19014KT 37/13 A2986 RMK A01 T03660129  RH  024%=      5-min Rain = 0
KAM1 190022Z 19013KT 37/13 A2986 RMK A01 T03660131  RH  024%=      5-min Rain = 0
KAM1 190023Z 19014KT 37/13 A2986 RMK A01 T03660130  RH  024%=      5-min Rain = 0
KAM1 190024Z 18012KT 37/13 A2986 RMK A01 T03660129  RH  024%=      5-min Rain = 0
KAM1 190025Z 19012G18KT 37/13 A2986 RMK A01 T03660131  RH  025%=      5-min Rain = 0
KAM1 190026Z 19015KT 37/13 A2986 RMK A01 T03660130  RH  024%=      5-min Rain = 0
KAM1 190027Z 19015KT 37/13 A2986 RMK A01 T03650128  RH  024%=      5-min Rain = 0
KAM1 190028Z 18013KT 37/13 A2986 RMK A01 T03650129  RH  024%=      5-min Rain = 0
KAM1 190029Z 18012KT 37/13 A2986 RMK A01 T03650129  RH  024%=      5-min Rain = 0
KAM1 190030Z 18013KT 37/13 A2986 RMK A01 T03650131  RH  025%=      5-min Rain = 0
KAM1 190031Z 18012KT 36/13 A2986 RMK A01 T03640130  RH  025%=      5-min Rain = 0
KAM1 190032Z 18014KT 37/13 A2986 RMK A01 T03650131  RH  025%=      5-min Rain = 0
KAM1 190033Z 17015KT 36/13 A2986 RMK A01 T03640128  RH  024%=      5-min Rain = 0
KAM1 190034Z 17015KT 36/13 A2986 RMK A01 T03640128  RH  024%=      5-min Rain = 0
KAM1 190035Z 17012KT 36/13 A2986 RMK A01 T03640129  RH  024%=      5-min Rain = 0
KAM1 190036Z 16013KT 36/13 A2986 RMK A01 T03630130  RH  025%=      5-min Rain = 0
KAM1 190037Z 17015KT 36/13 A2986 RMK A01 T03630131  RH  025%=      5-min Rain = 0
KAM1 190038Z 18017KT 36/13 A2986 RMK A01 T03630130  RH  025%=      5-min Rain = 0
KAM1 190039Z 18017KT 36/13 A2986 RMK A01 T03630129  RH  025%=      5-min Rain = 0
KAM1 190040Z 18015KT 36/13 A2986 RMK A01 T03620130  RH  025%=      5-min Rain = 0
KAM1 190041Z 18015KT 36/13 A2986 RMK A01 T03620130  RH  025%=      5-min Rain = 0
KAM1 190042Z 19015KT 36/13 A2986 RMK A01 T03620129  RH  025%=      5-min Rain = 0
KAM1 190043Z 18014KT 36/13 A2986 RMK A01 T03610129  RH  025%=      5-min Rain = 0
KAM1 190044Z 17015KT 36/13 A2986 RMK A01 T03610128  RH  025%=      5-min Rain = 0
KAM1 190045Z 18014KT 36/13 A2986 RMK A01 T03610129  RH  025%=      5-min Rain = 0
KAM1 190046Z 18014KT 36/13 A2986 RMK A01 T03600129  RH  025%=      5-min Rain = 0
KAM1 190047Z 18015KT 36/13 A2986 RMK A01 T03600129  RH  025%=      5-min Rain = 0
KAM1 190048Z 18013KT 36/13 A2986 RMK A01 T03600129  RH  025%=      5-min Rain = 0
KAM1 190049Z 18012KT 36/13 A2986 RMK A01 T03600129  RH  025%=      5-min Rain = 0
KAM1 190050Z 18011KT 36/13 A2986 RMK A01 T03590130  RH  025%=      5-min Rain = 0
KAM1 190051Z 17011KT 36/13 A2986 RMK A01 T03590130  RH  025%=      5-min Rain = 0
KAM1 190052Z 18011KT 36/13 A2986 RMK A01 T03590130  RH  025%=      5-min Rain = 0
KAM1 190053Z 17011KT 36/13 A2986 RMK A01 T03590130  RH  025%=      5-min Rain = 0
KAM1 190054Z 18013KT 36/13 A2986 RMK A01 T03580130  RH  025%=      5-min Rain = 0
KAM1 190055Z 17014KT 36/13 A2986 RMK A01 T03580128  RH  025%=      5-min Rain = 0
KAM1 190056Z 18015KT 36/13 A2986 RMK A01 T03580129  RH  025%=      5-min Rain = 0
KAM1 190057Z 18011KT 36/13 A2986 RMK A01 T03580130  RH  025%=      5-min Rain = 0
KAM1 190058Z 19012KT 36/13 A2986 RMK A01 T03570131  RH  026%=      5-min Rain = 0
KAM1 190059Z 18013KT 36/13 A2986 RMK A01 T03570131  RH  026%=      5-min Rain = 0
KAM1 190100Z 17012KT 36/13 A2986 RMK A01 T03560130  RH  026%=      5-min Rain = 0
KAM1 190101Z 18013KT 36/13 A2986 RMK A01 T03560130  RH  026%=      5-min Rain = 0
KAM1 190102Z 18012KT 36/13 A2986 RMK A01 T03560130  RH  026%=      5-min Rain = 0
KAM1 190103Z 18011KT 36/13 A2987 RMK A01 T03560130  RH  026%=      5-min Rain = 0
KAM1 190104Z 18012KT 36/13 A2986 RMK A01 T03560131  RH  026%=      5-min Rain = 0
KAM1 190105Z 18009KT 36/13 A2987 RMK A01 T03550132  RH  026%=      5-min Rain = 0
KAM1 190106Z 18011KT 35/13 A2986 RMK A01 T03540131  RH  026%=      5-min Rain = 0
KAM1 190107Z 18011KT 35/13 A2987 RMK A01 T03540131  RH  026%=      5-min Rain = 0
KAM1 190108Z 18010KT 35/13 A2987 RMK A01 T03540131  RH  026%=      5-min Rain = 0
KAM1 190109Z 18008KT 35/13 A2987 RMK A01 T03530132  RH  027%=      5-min Rain = 0
KAM1 190110Z 18010KT 35/13 A2987 RMK A01 T03520132  RH  027%=      5-min Rain = 0
KAM1 190111Z 18009KT 35/13 A2987 RMK A01 T03520133  RH  027%=      5-min Rain = 0
KAM1 190112Z 18010KT 35/13 A2987 RMK A01 T03510132  RH  027%=      5-min Rain = 0
KAM1 190113Z 17010KT 35/13 A2987 RMK A01 T03510131  RH  027%=      5-min Rain = 0
KAM1 190114Z 18010KT 35/13 A2987 RMK A01 T03510131  RH  027%=      5-min Rain = 0
KAM1 190115Z 19009KT 35/13 A2987 RMK A01 T03510131  RH  027%=      5-min Rain = 0
KAM1 190116Z 18009KT 35/13 A2987 RMK A01 T03500131  RH  027%=      5-min Rain = 0
KAM1 190117Z 18009KT 35/13 A2987 RMK A01 T03500132  RH  027%=      5-min Rain = 0
KAM1 190118Z 18011KT 35/13 A2987 RMK A01 T03490132  RH  027%=      5-min Rain = 0
KAM1 190119Z 18011KT 35/13 A2987 RMK A01 T03480129  RH  027%=      5-min Rain = 0
KAM1 190120Z 17010KT 35/13 A2987 RMK A01 T03490129  RH  027%=      5-min Rain = 0
KAM1 190121Z 18010KT 35/13 A2987 RMK A01 T03480129  RH  027%=      5-min Rain = 0
KAM1 190122Z 17009KT 35/13 A2987 RMK A01 T03490131  RH  027%=      5-min Rain = 0
KAM1 190123Z 17011KT 35/13 A2987 RMK A01 T03470131  RH  027%=      5-min Rain = 0
KAM1 190124Z 18010KT 35/13 A2987 RMK A01 T03470132  RH  027%=      5-min Rain = 0
KAM1 190125Z 16010KT 35/13 A2987 RMK A01 T03470132  RH  027%=      5-min Rain = 0
KAM1 190126Z 17010KT 35/13 A2987 RMK A01 T03470133  RH  028%=      5-min Rain = 0
KAM1 190127Z 17010KT 35/13 A2987 RMK A01 T03460133  RH  028%=      5-min Rain = 0
KAM1 190128Z 17009KT 35/13 A2987 RMK A01 T03450134  RH  028%=      5-min Rain = 0
KAM1 190129Z 17008KT 34/14 A2987 RMK A01 T03440135  RH  028%=      5-min Rain = 0
KAM1 190130Z 17011KT 34/14 A2987 RMK A01 T03420135  RH  029%=      5-min Rain = 0
KAM1 190131Z 18015G20KT 34/13 A2987 RMK A01 T03410133  RH  029%=      5-min Rain = 0
KAM1 190132Z 17012KT 34/13 A2987 RMK A01 T03420132  RH  028%=      5-min Rain = 0
KAM1 190133Z 17013KT 34/13 A2987 RMK A01 T03430133  RH  028%=      5-min Rain = 0
KAM1 190134Z 17012KT 34/13 A2987 RMK A01 T03430133  RH  028%=      5-min Rain = 0
KAM1 190135Z 17011KT 34/13 A2987 RMK A01 T03420134  RH  028%=      5-min Rain = 0
KAM1 190136Z 17013KT 34/13 A2987 RMK A01 T03420133  RH  029%=      5-min Rain = 0
KAM1 190137Z 17013KT 34/13 A2987 RMK A01 T03420134  RH  029%=      5-min Rain = 0
KAM1 190138Z 17013KT 34/13 A2987 RMK A01 T03410134  RH  029%=      5-min Rain = 0
KAM1 190139Z 17014KT 34/13 A2987 RMK A01 T03410134  RH  029%=      5-min Rain = 0
KAM1 190140Z 17015G20KT 34/13 A2987 RMK A01 T03410134  RH  029%=      5-min Rain = 0
KAM1 190141Z 17014KT 34/13 A2987 RMK A01 T03410134  RH  029%=      5-min Rain = 0
KAM1 190142Z 17012KT 34/13 A2987 RMK A01 T03400134  RH  029%=      5-min Rain = 0
KAM1 190143Z 17013KT 34/14 A2987 RMK A01 T03390135  RH  029%=      5-min Rain = 0
KAM1 190144Z 16016KT 34/13 A2987 RMK A01 T03380134  RH  029%=      5-min Rain = 0
KAM1 190145Z 16015KT 34/14 A2987 RMK A01 T03380135  RH  029%=      5-min Rain = 0
KAM1 190146Z 17014G19KT 34/14 A2988 RMK A01 T03380135  RH  029%=      5-min Rain = 0
KAM1 190147Z 17013KT 34/14 A2988 RMK A01 T03390136  RH  029%=      5-min Rain = 0
KAM1 190148Z 17012KT 34/14 A2988 RMK A01 T03380136  RH  030%=      5-min Rain = 0
KAM1 190149Z 17011KT 34/14 A2988 RMK A01 T03370136  RH  030%=      5-min Rain = 0
KAM1 190150Z 16014KT 34/14 A2988 RMK A01 T03360136  RH  030%=      5-min Rain = 0
KAM1 190151Z 17014KT 34/14 A2988 RMK A01 T03350137  RH  030%=      5-min Rain = 0
KAM1 190152Z 16017KT 34/14 A2988 RMK A01 T03350137  RH  030%=      5-min Rain = 0
KAM1 190153Z 17016KT 34/14 A2988 RMK A01 T03350137  RH  030%=      5-min Rain = 0
KAM1 190154Z 17013KT 34/14 A2988 RMK A01 T03360138  RH  030%=      5-min Rain = 0
KAM1 190155Z 17013KT 34/14 A2988 RMK A01 T03350138  RH  030%=      5-min Rain = 0
KAM1 190156Z 17014KT 34/14 A2988 RMK A01 T03350139  RH  031%=      5-min Rain = 0
KAM1 190157Z 16016KT 33/14 A2988 RMK A01 T03340139  RH  031%=      5-min Rain = 0
KAM1 190158Z 17012KT 33/14 A2988 RMK A01 T03340139  RH  031%=      5-min Rain = 0
KAM1 190159Z 17013KT 33/14 A2988 RMK A01 T03330140  RH  031%=      5-min Rain = 0
KAM1 190200Z 16016KT 33/14 A2988 RMK A01 T03310140  RH  031%=      5-min Rain = 0
KAM1 190201Z 17015KT 33/14 A2988 RMK A01 T03320140  RH  031%=      5-min Rain = 0
KAM1 190202Z 17013KT 33/14 A2988 RMK A01 T03320140  RH  031%=      5-min Rain = 0
KAM1 190203Z 17012KT 33/14 A2988 RMK A01 T03310140  RH  032%=      5-min Rain = 0
KAM1 190204Z 17014KT 33/14 A2988 RMK A01 T03300141  RH  032%=      5-min Rain = 0
KAM1 190205Z 17013KT 33/14 A2988 RMK A01 T03300140  RH  032%=      5-min Rain = 0
KAM1 190206Z 17013KT 33/14 A2988 RMK A01 T03290141  RH  032%=      5-min Rain = 0
KAM1 190207Z 17011KT 33/14 A2988 RMK A01 T03290141  RH  032%=      5-min Rain = 0
KAM1 190208Z 17012KT 33/14 A2988 RMK A01 T03280141  RH  032%=      5-min Rain = 0
KAM1 190209Z 17013KT 33/14 A2988 RMK A01 T03270141  RH  032%=      5-min Rain = 0
KAM1 190210Z 17010KT 33/14 A2988 RMK A01 T03270141  RH  033%=      5-min Rain = 0
KAM1 190211Z 17012KT 33/14 A2988 RMK A01 T03260141  RH  033%=      5-min Rain = 0
KAM1 190212Z 17013KT 33/14 A2989 RMK A01 T03250141  RH  033%=      5-min Rain = 0
KAM1 190213Z 17012KT 33/14 A2988 RMK A01 T03250141  RH  033%=      5-min Rain = 0
KAM1 190214Z 17012KT 33/14 A2989 RMK A01 T03250141  RH  033%=      5-min Rain = 0
KAM1 190215Z 17014KT 33/14 A2989 RMK A01 T03250141  RH  033%=      5-min Rain = 0
KAM1 190216Z 17013KT 33/14 A2989 RMK A01 T03250141  RH  033%=      5-min Rain = 0
KAM1 190217Z 17013KT 33/14 A2989 RMK A01 T03260142  RH  033%=      5-min Rain = 0
KAM1 190218Z 17015KT 33/14 A2989 RMK A01 T03250142  RH  033%=      5-min Rain = 0
KAM1 190219Z 17013KT 33/14 A2989 RMK A01 T03250141  RH  033%=      5-min Rain = 0
KAM1 190220Z 17014KT 33/14 A2989 RMK A01 T03250142  RH  033%=      5-min Rain = 0
KAM1 190221Z 17013KT 33/14 A2989 RMK A01 T03250142  RH  033%=      5-min Rain = 0
KAM1 190222Z 17013KT 32/14 A2989 RMK A01 T03240142  RH  033%=      5-min Rain = 0
KAM1 190223Z 17011KT 32/14 A2989 RMK A01 T03240142  RH  033%=      5-min Rain = 0
KAM1 190224Z 17011KT 32/14 A2989 RMK A01 T03230142  RH  033%=      5-min Rain = 0
KAM1 190225Z 17011KT 32/14 A2989 RMK A01 T03220142  RH  034%=      5-min Rain = 0
KAM1 190226Z 17013KT 32/14 A2989 RMK A01 T03210142  RH  034%=      5-min Rain = 0
KAM1 190227Z 17013KT 32/14 A2989 RMK A01 T03210142  RH  034%=      5-min Rain = 0
KAM1 190228Z 17012KT 32/14 A2989 RMK A01 T03210142  RH  034%=      5-min Rain = 0
KAM1 190229Z 17010KT 32/14 A2989 RMK A01 T03210142  RH  034%=      5-min Rain = 0
KAM1 190230Z 16011KT 32/14 A2989 RMK A01 T03210142  RH  034%=      5-min Rain = 0
KAM1 190231Z 16012G17KT 32/14 A2989 RMK A01 T03190142  RH  034%=      5-min Rain = 0
KAM1 190232Z 17011KT 32/14 A2989 RMK A01 T03190142  RH  034%=      5-min Rain = 0
KAM1 190233Z 17012KT 32/14 A2989 RMK A01 T03180142  RH  034%=      5-min Rain = 0
KAM1 190234Z 17012KT 32/14 A2989 RMK A01 T03180142  RH  034%=      5-min Rain = 0
KAM1 190235Z 16013KT 32/14 A2989 RMK A01 T03180142  RH  034%=      5-min Rain = 0
KAM1 190236Z 17013KT 32/14 A2989 RMK A01 T03190142  RH  034%=      5-min Rain = 0
KAM1 190237Z 17012KT 32/14 A2989 RMK A01 T03190142  RH  034%=      5-min Rain = 0
KAM1 190238Z 16011KT 32/14 A299 RMK A01 T03190143  RH  034%=      5-min Rain = 0
KAM1 190239Z 16011KT 32/14 A299 RMK A01 T03180143  RH  035%=      5-min Rain = 0
KAM1 190240Z 17011KT 32/14 A299 RMK A01 T03170143  RH  035%=      5-min Rain = 0
KAM1 190241Z 16012KT 32/14 A2989 RMK A01 T03160143  RH  035%=      5-min Rain = 0
KAM1 190242Z 17010KT 32/14 A299 RMK A01 T03160143  RH  035%=      5-min Rain = 0
KAM1 190243Z 16010KT 32/14 A299 RMK A01 T03160143  RH  035%=      5-min Rain = 0
KAM1 190244Z 16013KT 32/14 A299 RMK A01 T03150144  RH  035%=      5-min Rain = 0
KAM1 190245Z 17012KT 31/14 A299 RMK A01 T03140143  RH  035%=      5-min Rain = 0
KAM1 190246Z 16013KT 32/14 A299 RMK A01 T03150144  RH  035%=      5-min Rain = 0
KAM1 190247Z 16012KT 32/14 A299 RMK A01 T03150144  RH  035%=      5-min Rain = 0
KAM1 190248Z 16011KT 32/15 A299 RMK A01 T03150145  RH  036%=      5-min Rain = 0
KAM1 190249Z 16011KT 31/14 A299 RMK A01 T03140144  RH  036%=      5-min Rain = 0
KAM1 190250Z 16010KT 31/15 A299 RMK A01 T03130145  RH  036%=      5-min Rain = 0
KAM1 190251Z 16010KT 31/15 A299 RMK A01 T03120145  RH  036%=      5-min Rain = 0
KAM1 190252Z 16010KT 31/15 A299 RMK A01 T03120145  RH  036%=      5-min Rain = 0
KAM1 190253Z 16011KT 31/15 A299 RMK A01 T03100145  RH  037%=      5-min Rain = 0
KAM1 190254Z 16010KT 31/15 A299 RMK A01 T03090145  RH  037%=      5-min Rain = 0
KAM1 190255Z 16010KT 31/15 A299 RMK A01 T03090145  RH  037%=      5-min Rain = 0
KAM1 190256Z 16010KT 31/15 A299 RMK A01 T03080146  RH  037%=      5-min Rain = 0
KAM1 190257Z 16012KT 31/15 A299 RMK A01 T03080146  RH  037%=      5-min Rain = 0
KAM1 190258Z 17011KT 31/15 A299 RMK A01 T03080146  RH  037%=      5-min Rain = 0
KAM1 190259Z 16010KT 31/15 A299 RMK A01 T03070147  RH  038%=      5-min Rain = 0
KAM1 190300Z 16010KT 31/15 A299 RMK A01 T03070147  RH  038%=      5-min Rain = 0
KAM1 190301Z 16012KT 31/15 A299 RMK A01 T03070148  RH  038%=      5-min Rain = 0
KAM1 190302Z 16011KT 31/15 A299 RMK A01 T03060148  RH  038%=      5-min Rain = 0
KAM1 190303Z 16011KT 31/15 A299 RMK A01 T03060148  RH  038%=      5-min Rain = 0
KAM1 190304Z 16013KT 31/15 A299 RMK A01 T03060148  RH  038%=      5-min Rain = 0
KAM1 190305Z 16012KT 31/15 A299 RMK A01 T03060148  RH  038%=      5-min Rain = 0
KAM1 190306Z 16011KT 31/15 A299 RMK A01 T03070148  RH  038%=      5-min Rain = 0
KAM1 190307Z 16011KT 31/15 A299 RMK A01 T03070148  RH  038%=      5-min Rain = 0
KAM1 190308Z 16012KT 31/15 A299 RMK A01 T03070149  RH  038%=      5-min Rain = 0
KAM1 190309Z 16011KT 31/15 A299 RMK A01 T03070149  RH  038%=      5-min Rain = 0
KAM1 190310Z 16011KT 31/15 A299 RMK A01 T03060149  RH  038%=      5-min Rain = 0
KAM1 190311Z 16011KT 31/15 A299 RMK A01 T03060149  RH  038%=      5-min Rain = 0
KAM1 190312Z 16012KT 31/15 A299 RMK A01 T03060149  RH  039%=      5-min Rain = 0
KAM1 190313Z 16012KT 31/15 A299 RMK A01 T03050149  RH  039%=      5-min Rain = 0
KAM1 190314Z 16011KT 31/15 A299 RMK A01 T03050149  RH  039%=      5-min Rain = 0
KAM1 190315Z 16012KT 31/15 A299 RMK A01 T03050149  RH  039%=      5-min Rain = 0
KAM1 190316Z 16011KT 31/15 A299 RMK A01 T03050149  RH  039%=      5-min Rain = 0
KAM1 190317Z 16011KT 31/15 A2991 RMK A01 T03050149  RH  039%=      5-min Rain = 0
KAM1 190318Z 16010KT 31/15 A2991 RMK A01 T03050149  RH  039%=      5-min Rain = 0
KAM1 190319Z 16011KT 30/15 A2991 RMK A01 T03030149  RH  039%=      5-min Rain = 0
KAM1 190320Z 16011KT 30/15 A2991 RMK A01 T03030149  RH  039%=      5-min Rain = 0
KAM1 190321Z 16010KT 30/15 A2991 RMK A01 T03020148  RH  039%=      5-min Rain = 0
KAM1 190322Z 16011KT 30/15 A2991 RMK A01 T03020149  RH  039%=      5-min Rain = 0
KAM1 190323Z 16011KT 30/15 A2991 RMK A01 T03010149  RH  040%=      5-min Rain = 0
KAM1 190324Z 16012KT 30/15 A2991 RMK A01 T03010148  RH  040%=      5-min Rain = 0
KAM1 190325Z 16011KT 30/15 A2991 RMK A01 T03010148  RH  039%=      5-min Rain = 0
KAM1 190326Z 16011KT 30/15 A2991 RMK A01 T03020149  RH  039%=      5-min Rain = 0
KAM1 190327Z 16010KT 30/15 A2991 RMK A01 T03020149  RH  039%=      5-min Rain = 0
KAM1 190328Z 16012KT 30/15 A2991 RMK A01 T03020149  RH  039%=      5-min Rain = 0
KAM1 190329Z 16011KT 30/15 A2991 RMK A01 T03010149  RH  040%=      5-min Rain = 0
KAM1 190330Z 16009KT 30/15 A2991 RMK A01 T03010149  RH  039%=      5-min Rain = 0
KAM1 190331Z 16011G16KT 30/15 A2991 RMK A01 T03010149  RH  040%=      5-min Rain = 0
KAM1 190332Z 16011KT 30/15 A2991 RMK A01 T03000148  RH  040%=      5-min Rain = 0
KAM1 190333Z 16010KT 30/15 A2991 RMK A01 T03000149  RH  040%=      5-min Rain = 0
KAM1 190334Z 16011KT 30/15 A2991 RMK A01 T03000148  RH  040%=      5-min Rain = 0
KAM1 190335Z 16010KT 30/15 A2991 RMK A01 T02990148  RH  040%=      5-min Rain = 0
KAM1 190336Z 16011KT 30/15 A2992 RMK A01 T02980148  RH  040%=      5-min Rain = 0
KAM1 190337Z 16012KT 30/15 A2991 RMK A01 T02980148  RH  040%=      5-min Rain = 0
KAM1 190338Z 16010KT 30/15 A2992 RMK A01 T02990148  RH  040%=      5-min Rain = 0
KAM1 190339Z 16011KT 30/15 A2992 RMK A01 T02990148  RH  040%=      5-min Rain = 0
KAM1 190340Z 16011KT 30/15 A2992 RMK A01 T02980148  RH  040%=      5-min Rain = 0
KAM1 190341Z 17011KT 30/15 A2992 RMK A01 T02980148  RH  040%=      5-min Rain = 0
KAM1 190342Z 17011KT 30/15 A2992 RMK A01 T02980148  RH  040%=      5-min Rain = 0
KAM1 190343Z 16011KT 30/15 A2992 RMK A01 T02970148  RH  040%=      5-min Rain = 0
KAM1 190344Z 16010KT 30/15 A2992 RMK A01 T02980148  RH  040%=      5-min Rain = 0
KAM1 190345Z 16012KT 30/15 A2992 RMK A01 T02970148  RH  040%=      5-min Rain = 0
KAM1 190346Z 16009KT 30/15 A2992 RMK A01 T02970148  RH  040%=      5-min Rain = 0
KAM1 190347Z 16010KT 30/15 A2992 RMK A01 T02960148  RH  041%=      5-min Rain = 0
KAM1 190348Z 16011KT 30/15 A2992 RMK A01 T02960148  RH  041%=      5-min Rain = 0
KAM1 190349Z 16011KT 30/15 A2992 RMK A01 T02950148  RH  041%=      5-min Rain = 0
KAM1 190350Z 16010KT 30/15 A2992 RMK A01 T02950148  RH  041%=      5-min Rain = 0
KAM1 190351Z 16010KT 29/15 A2992 RMK A01 T02940148  RH  041%=      5-min Rain = 0
KAM1 190352Z 16010KT 29/15 A2992 RMK A01 T02940148  RH  041%=      5-min Rain = 0
KAM1 190353Z 16010KT 29/15 A2992 RMK A01 T02940148  RH  041%=      5-min Rain = 0
KAM1 190354Z 17009KT 29/15 A2992 RMK A01 T02930148  RH  041%=      5-min Rain = 0
KAM1 190355Z 16010KT 29/15 A2992 RMK A01 T02930147  RH  041%=      5-min Rain = 0
KAM1 190356Z 17011KT 29/15 A2992 RMK A01 T02920147  RH  041%=      5-min Rain = 0
KAM1 190357Z 16011KT 29/15 A2992 RMK A01 T02920147  RH  041%=      5-min Rain = 0
KAM1 190358Z 16010KT 29/15 A2992 RMK A01 T02930147  RH  041%=      5-min Rain = 0
KAM1 190359Z 16011KT 29/15 A2992 RMK A01 T02920147  RH  041%=      5-min Rain = 0
KAM1 190400Z 16010KT 29/15 A2992 RMK A01 T02920147  RH  041%=      5-min Rain = 0
KAM1 190401Z 16010KT 29/15 A2992 RMK A01 T02920147  RH  041%=      5-min Rain = 0
KAM1 190402Z 16010KT 29/15 A2992 RMK A01 T02910147  RH  041%=      5-min Rain = 0
KAM1 190403Z 16010KT 29/15 A2992 RMK A01 T02910147  RH  041%=      5-min Rain = 0
KAM1 190404Z 16010KT 29/15 A2992 RMK A01 T02900147  RH  042%=      5-min Rain = 0
KAM1 190405Z 16010KT 29/15 A2992 RMK A01 T02890147  RH  042%=      5-min Rain = 0
KAM1 190406Z 16010KT 29/15 A2992 RMK A01 T02890147  RH  042%=      5-min Rain = 0
KAM1 190407Z 17010KT 29/15 A2992 RMK A01 T02890147  RH  042%=      5-min Rain = 0
KAM1 190408Z 16010KT 29/15 A2992 RMK A01 T02890146  RH  042%=      5-min Rain = 0
KAM1 190409Z 16011KT 29/15 A2992 RMK A01 T02890146  RH  042%=      5-min Rain = 0
KAM1 190410Z 16011KT 29/15 A2992 RMK A01 T02890146  RH  042%=      5-min Rain = 0
KAM1 190411Z 17010KT 29/15 A2993 RMK A01 T02890146  RH  042%=      5-min Rain = 0
KAM1 190412Z 16011KT 29/15 A2993 RMK A01 T02890146  RH  042%=      5-min Rain = 0
KAM1 190413Z 16011KT 29/15 A2993 RMK A01 T02890146  RH  042%=      5-min Rain = 0
KAM1 190414Z 16011KT 29/15 A2993 RMK A01 T02900146  RH  042%=      5-min Rain = 0
KAM1 190415Z 16011KT 29/15 A2993 RMK A01 T02900146  RH  041%=      5-min Rain = 0
KAM1 190416Z 16011KT 29/15 A2993 RMK A01 T02910146  RH  041%=      5-min Rain = 0
KAM1 190417Z 16010KT 29/15 A2993 RMK A01 T02910146  RH  041%=      5-min Rain = 0
KAM1 190418Z 16011KT 29/15 A2993 RMK A01 T02910146  RH  041%=      5-min Rain = 0
KAM1 190419Z 16011KT 29/15 A2993 RMK A01 T02900146  RH  041%=      5-min Rain = 0
KAM1 190420Z 16011KT 29/15 A2993 RMK A01 T02900146  RH  041%=      5-min Rain = 0
KAM1 190421Z 17010KT 29/15 A2993 RMK A01 T02900145  RH  041%=      5-min Rain = 0
KAM1 190422Z 17010KT 29/15 A2993 RMK A01 T02900145  RH  041%=      5-min Rain = 0
KAM1 190423Z 16010KT 29/15 A2993 RMK A01 T02900145  RH  041%=      5-min Rain = 0
KAM1 190424Z 17010KT 29/15 A2993 RMK A01 T02900145  RH  041%=      5-min Rain = 0
KAM1 190425Z 16010KT 29/15 A2993 RMK A01 T02890145  RH  041%=      5-min Rain = 0
KAM1 190426Z 16010KT 29/15 A2993 RMK A01 T02890145  RH  041%=      5-min Rain = 0
KAM1 190427Z 16009KT 29/15 A2993 RMK A01 T02880145  RH  042%=      5-min Rain = 0
KAM1 190428Z 17009KT 29/15 A2993 RMK A01 T02870145  RH  042%=      5-min Rain = 0
KAM1 190429Z 17009KT 29/15 A2993 RMK A01 T02870145  RH  042%=      5-min Rain = 0
KAM1 190430Z 17012KT 29/15 A2993 RMK A01 T02860145  RH  042%=      5-min Rain = 0
KAM1 190431Z 17009KT 29/15 A2993 RMK A01 T02860145  RH  042%=      5-min Rain = 0
KAM1 190432Z 16009KT 29/15 A2993 RMK A01 T02870145  RH  042%=      5-min Rain = 0
KAM1 190433Z 16010KT 29/15 A2993 RMK A01 T02860145  RH  042%=      5-min Rain = 0
KAM1 190434Z 16010KT 29/15 A2993 RMK A01 T02860145  RH  042%=      5-min Rain = 0
KAM1 190435Z 16010KT 29/15 A2993 RMK A01 T02860145  RH  042%=      5-min Rain = 0
KAM1 190436Z 16009KT 29/15 A2993 RMK A01 T02860145  RH  042%=      5-min Rain = 0
KAM1 190437Z 16009KT 28/15 A2993 RMK A01 T02840145  RH  043%=      5-min Rain = 0
KAM1 190438Z 17009KT 28/15 A2993 RMK A01 T02830145  RH  043%=      5-min Rain = 0
KAM1 190439Z 16010KT 28/15 A2993 RMK A01 T02830145  RH  043%=      5-min Rain = 0
KAM1 190440Z 16009KT 28/14 A2993 RMK A01 T02830144  RH  043%=      5-min Rain = 0
KAM1 190441Z 17010KT 28/15 A2993 RMK A01 T02830145  RH  043%=      5-min Rain = 0
KAM1 190442Z 16010KT 28/14 A2993 RMK A01 T02820144  RH  043%=      5-min Rain = 0
KAM1 190443Z 16009KT 28/15 A2993 RMK A01 T02820145  RH  043%=      5-min Rain = 0
KAM1 190444Z 17010KT 28/15 A2993 RMK A01 T02820145  RH  043%=      5-min Rain = 0
KAM1 190445Z 17011KT 28/14 A2993 RMK A01 T02810144  RH  043%=      5-min Rain = 0
KAM1 190446Z 17009KT 28/14 A2993 RMK A01 T02810144  RH  043%=      5-min Rain = 0
KAM1 190447Z 16010KT 28/14 A2993 RMK A01 T02820144  RH  043%=      5-min Rain = 0
KAM1 190448Z 17010KT 28/14 A2993 RMK A01 T02820144  RH  043%=      5-min Rain = 0
KAM1 190449Z 17011KT 28/14 A2993 RMK A01 T02820144  RH  043%=      5-min Rain = 0
KAM1 190450Z 17009KT 28/14 A2993 RMK A01 T02820144  RH  043%=      5-min Rain = 0
KAM1 190451Z 17010KT 28/14 A2993 RMK A01 T02820144  RH  043%=      5-min Rain = 0
KAM1 190452Z 17009KT 28/14 A2993 RMK A01 T02820144  RH  043%=      5-min Rain = 0
KAM1 190453Z 16009KT 28/14 A2993 RMK A01 T02820144  RH  043%=      5-min Rain = 0
KAM1 190454Z 17010KT 28/14 A2993 RMK A01 T02810144  RH  043%=      5-min Rain = 0
KAM1 190455Z 17009KT 28/14 A2993 RMK A01 T02810143  RH  043%=      5-min Rain = 0
KAM1 190456Z 16009KT 28/14 A2993 RMK A01 T02800144  RH  043%=      5-min Rain = 0
KAM1 190457Z 16009KT 28/14 A2993 RMK A01 T02800144  RH  043%=      5-min Rain = 0
KAM1 190458Z 16009KT 28/14 A2993 RMK A01 T02800143  RH  043%=      5-min Rain = 0
KAM1 190459Z 16009KT 28/14 A2993 RMK A01 T02790144  RH  043%=      5-min Rain = 0

Page generated in 0.0708 seconds.